<?xml version="1.0" encoding="UTF-8" standalone="no" ?>
<gpx xmlns="http://www.topografix.com/GPX/1/1" xmlns:xsi="http://www.w3.org/2001/XMLSchema-instance" xsi:schemaLocation="http://www.topografix.com/GPX/1/1 http://www.topografix.com/GPX/1/1/gpx.xsd" version="1.1" creator="VisuGPX - https://www.visugpx.com">
  <metadata>
    <name>Forêt de Meudon </name>
    <desc><![CDATA[www.pasapascourbevoie.com
Jeu de Piste 2013]]></desc>
  </metadata>
  <trk>
    <name><![CDATA[Track-130429-151849]]></name>
    <desc><![CDATA[null]]></desc>
    <trkseg>
      <trkpt lat="48.80849" lon="2.19676">
        <ele>119</ele>
        <time>2013-05-01T06:36:07Z</time>
      </trkpt>
      <trkpt lat="48.80846" lon="2.19606">
        <ele>116</ele>
        <time>2013-05-01T06:36:09Z</time>
      </trkpt>
      <trkpt lat="48.80846" lon="2.19606">
        <ele>116</ele>
        <time>2013-05-01T06:36:11Z</time>
      </trkpt>
      <trkpt lat="48.80846" lon="2.19606">
        <ele>116</ele>
        <time>2013-05-01T06:36:14Z</time>
      </trkpt>
      <trkpt lat="48.80848" lon="2.19585">
        <ele>116</ele>
        <time>2013-05-01T06:36:15Z</time>
      </trkpt>
      <trkpt lat="48.80837" lon="2.1958">
        <ele>115</ele>
        <time>2013-05-01T06:36:40Z</time>
      </trkpt>
      <trkpt lat="48.8084" lon="2.19576">
        <ele>114</ele>
        <time>2013-05-01T06:36:59Z</time>
      </trkpt>
      <trkpt lat="48.80841" lon="2.19566">
        <ele>113</ele>
        <time>2013-05-01T06:37:40Z</time>
      </trkpt>
      <trkpt lat="48.80839" lon="2.19574">
        <ele>114</ele>
        <time>2013-05-01T06:38:20Z</time>
      </trkpt>
      <trkpt lat="48.80837" lon="2.19566">
        <ele>114</ele>
        <time>2013-05-01T06:39:24Z</time>
      </trkpt>
      <trkpt lat="48.8084" lon="2.19568">
        <ele>114</ele>
        <time>2013-05-01T06:40:31Z</time>
      </trkpt>
      <trkpt lat="48.80844" lon="2.19572">
        <ele>114</ele>
        <time>2013-05-01T06:40:56Z</time>
      </trkpt>
      <trkpt lat="48.80837" lon="2.19573">
        <ele>114</ele>
        <time>2013-05-01T06:42:08Z</time>
      </trkpt>
      <trkpt lat="48.80832" lon="2.19578">
        <ele>117</ele>
        <time>2013-05-01T06:44:07Z</time>
      </trkpt>
      <trkpt lat="48.8083" lon="2.19569">
        <ele>118</ele>
        <time>2013-05-01T06:44:24Z</time>
      </trkpt>
      <trkpt lat="48.80832" lon="2.19561">
        <ele>118</ele>
        <time>2013-05-01T06:44:37Z</time>
      </trkpt>
      <trkpt lat="48.80833" lon="2.19569">
        <ele>118</ele>
        <time>2013-05-01T06:45:10Z</time>
      </trkpt>
      <trkpt lat="48.80826" lon="2.19573">
        <ele>118</ele>
        <time>2013-05-01T06:46:33Z</time>
      </trkpt>
      <trkpt lat="48.80819" lon="2.19568">
        <ele>118</ele>
        <time>2013-05-01T06:46:46Z</time>
      </trkpt>
      <trkpt lat="48.80812" lon="2.19567">
        <ele>119</ele>
        <time>2013-05-01T06:46:55Z</time>
      </trkpt>
      <trkpt lat="48.80804" lon="2.19569">
        <ele>119</ele>
        <time>2013-05-01T06:47:05Z</time>
      </trkpt>
      <trkpt lat="48.80793" lon="2.19568">
        <ele>120</ele>
        <time>2013-05-01T06:47:21Z</time>
      </trkpt>
      <trkpt lat="48.80782" lon="2.19567">
        <ele>121</ele>
        <time>2013-05-01T06:47:29Z</time>
      </trkpt>
      <trkpt lat="48.80774" lon="2.19563">
        <ele>122</ele>
        <time>2013-05-01T06:47:34Z</time>
      </trkpt>
      <trkpt lat="48.80766" lon="2.1956">
        <ele>122</ele>
        <time>2013-05-01T06:47:41Z</time>
      </trkpt>
      <trkpt lat="48.80759" lon="2.19559">
        <ele>123</ele>
        <time>2013-05-01T06:47:49Z</time>
      </trkpt>
      <trkpt lat="48.8075" lon="2.19559">
        <ele>123</ele>
        <time>2013-05-01T06:47:56Z</time>
      </trkpt>
      <trkpt lat="48.80741" lon="2.19558">
        <ele>129</ele>
        <time>2013-05-01T06:48:01Z</time>
      </trkpt>
      <trkpt lat="48.80729" lon="2.19555">
        <ele>130</ele>
        <time>2013-05-01T06:48:06Z</time>
      </trkpt>
      <trkpt lat="48.80721" lon="2.19551">
        <ele>130</ele>
        <time>2013-05-01T06:48:16Z</time>
      </trkpt>
      <trkpt lat="48.80713" lon="2.19549">
        <ele>131</ele>
        <time>2013-05-01T06:48:22Z</time>
      </trkpt>
      <trkpt lat="48.80702" lon="2.19546">
        <ele>131</ele>
        <time>2013-05-01T06:48:28Z</time>
      </trkpt>
      <trkpt lat="48.80693" lon="2.19545">
        <ele>132</ele>
        <time>2013-05-01T06:48:41Z</time>
      </trkpt>
      <trkpt lat="48.80682" lon="2.19543">
        <ele>132</ele>
        <time>2013-05-01T06:48:55Z</time>
      </trkpt>
      <trkpt lat="48.80676" lon="2.19546">
        <ele>132</ele>
        <time>2013-05-01T06:49:01Z</time>
      </trkpt>
      <trkpt lat="48.80667" lon="2.19544">
        <ele>133</ele>
        <time>2013-05-01T06:49:05Z</time>
      </trkpt>
      <trkpt lat="48.80658" lon="2.19536">
        <ele>137</ele>
        <time>2013-05-01T06:49:14Z</time>
      </trkpt>
      <trkpt lat="48.80645" lon="2.19531">
        <ele>138</ele>
        <time>2013-05-01T06:49:21Z</time>
      </trkpt>
      <trkpt lat="48.80634" lon="2.19528">
        <ele>138</ele>
        <time>2013-05-01T06:49:26Z</time>
      </trkpt>
      <trkpt lat="48.80626" lon="2.19526">
        <ele>138</ele>
        <time>2013-05-01T06:49:31Z</time>
      </trkpt>
      <trkpt lat="48.80618" lon="2.19525">
        <ele>139</ele>
        <time>2013-05-01T06:49:37Z</time>
      </trkpt>
      <trkpt lat="48.80611" lon="2.19522">
        <ele>139</ele>
        <time>2013-05-01T06:49:47Z</time>
      </trkpt>
      <trkpt lat="48.806" lon="2.1952">
        <ele>139</ele>
        <time>2013-05-01T06:49:55Z</time>
      </trkpt>
      <trkpt lat="48.80592" lon="2.19518">
        <ele>140</ele>
        <time>2013-05-01T06:50:02Z</time>
      </trkpt>
      <trkpt lat="48.80584" lon="2.19519">
        <ele>140</ele>
        <time>2013-05-01T06:50:07Z</time>
      </trkpt>
      <trkpt lat="48.80576" lon="2.19519">
        <ele>142</ele>
        <time>2013-05-01T06:50:13Z</time>
      </trkpt>
      <trkpt lat="48.80565" lon="2.19518">
        <ele>142</ele>
        <time>2013-05-01T06:50:22Z</time>
      </trkpt>
      <trkpt lat="48.80556" lon="2.19518">
        <ele>142</ele>
        <time>2013-05-01T06:50:35Z</time>
      </trkpt>
      <trkpt lat="48.80541" lon="2.19523">
        <ele>142</ele>
        <time>2013-05-01T06:50:41Z</time>
      </trkpt>
      <trkpt lat="48.8053" lon="2.19518">
        <ele>142</ele>
        <time>2013-05-01T06:50:44Z</time>
      </trkpt>
      <trkpt lat="48.80523" lon="2.19515">
        <ele>142</ele>
        <time>2013-05-01T06:50:48Z</time>
      </trkpt>
      <trkpt lat="48.80512" lon="2.19516">
        <ele>143</ele>
        <time>2013-05-01T06:50:57Z</time>
      </trkpt>
      <trkpt lat="48.805" lon="2.19511">
        <ele>143</ele>
        <time>2013-05-01T06:51:07Z</time>
      </trkpt>
      <trkpt lat="48.80493" lon="2.19509">
        <ele>143</ele>
        <time>2013-05-01T06:51:13Z</time>
      </trkpt>
      <trkpt lat="48.80485" lon="2.19507">
        <ele>143</ele>
        <time>2013-05-01T06:51:20Z</time>
      </trkpt>
      <trkpt lat="48.80475" lon="2.19505">
        <ele>143</ele>
        <time>2013-05-01T06:51:30Z</time>
      </trkpt>
      <trkpt lat="48.80467" lon="2.19503">
        <ele>143</ele>
        <time>2013-05-01T06:51:40Z</time>
      </trkpt>
      <trkpt lat="48.8046" lon="2.19501">
        <ele>143</ele>
        <time>2013-05-01T06:51:44Z</time>
      </trkpt>
      <trkpt lat="48.80451" lon="2.19495">
        <ele>142</ele>
        <time>2013-05-01T06:51:54Z</time>
      </trkpt>
      <trkpt lat="48.80445" lon="2.19488">
        <ele>142</ele>
        <time>2013-05-01T06:52:24Z</time>
      </trkpt>
      <trkpt lat="48.80438" lon="2.19496">
        <ele>142</ele>
        <time>2013-05-01T06:52:50Z</time>
      </trkpt>
      <trkpt lat="48.80425" lon="2.19482">
        <ele>142</ele>
        <time>2013-05-01T06:53:17Z</time>
      </trkpt>
      <trkpt lat="48.80414" lon="2.19476">
        <ele>142</ele>
        <time>2013-05-01T06:53:22Z</time>
      </trkpt>
      <trkpt lat="48.80403" lon="2.19473">
        <ele>142</ele>
        <time>2013-05-01T06:53:26Z</time>
      </trkpt>
      <trkpt lat="48.80395" lon="2.19475">
        <ele>142</ele>
        <time>2013-05-01T06:53:32Z</time>
      </trkpt>
      <trkpt lat="48.80388" lon="2.19475">
        <ele>142</ele>
        <time>2013-05-01T06:53:39Z</time>
      </trkpt>
      <trkpt lat="48.80381" lon="2.19473">
        <ele>142</ele>
        <time>2013-05-01T06:53:46Z</time>
      </trkpt>
      <trkpt lat="48.80375" lon="2.19468">
        <ele>142</ele>
        <time>2013-05-01T06:53:53Z</time>
      </trkpt>
      <trkpt lat="48.80367" lon="2.19464">
        <ele>142</ele>
        <time>2013-05-01T06:53:59Z</time>
      </trkpt>
      <trkpt lat="48.80361" lon="2.19457">
        <ele>142</ele>
        <time>2013-05-01T06:54:06Z</time>
      </trkpt>
      <trkpt lat="48.80355" lon="2.1945">
        <ele>142</ele>
        <time>2013-05-01T06:54:15Z</time>
      </trkpt>
      <trkpt lat="48.80363" lon="2.19451">
        <ele>142</ele>
        <time>2013-05-01T06:54:56Z</time>
      </trkpt>
      <trkpt lat="48.8037" lon="2.19446">
        <ele>142</ele>
        <time>2013-05-01T06:55:02Z</time>
      </trkpt>
      <trkpt lat="48.8038" lon="2.1944">
        <ele>142</ele>
        <time>2013-05-01T06:55:11Z</time>
      </trkpt>
      <trkpt lat="48.80394" lon="2.19438">
        <ele>142</ele>
        <time>2013-05-01T06:55:20Z</time>
      </trkpt>
      <trkpt lat="48.80402" lon="2.19441">
        <ele>142</ele>
        <time>2013-05-01T06:55:29Z</time>
      </trkpt>
      <trkpt lat="48.80408" lon="2.19445">
        <ele>142</ele>
        <time>2013-05-01T06:55:41Z</time>
      </trkpt>
      <trkpt lat="48.80413" lon="2.19444">
        <ele>142</ele>
        <time>2013-05-01T06:55:47Z</time>
      </trkpt>
      <trkpt lat="48.80414" lon="2.19431">
        <ele>142</ele>
        <time>2013-05-01T06:56:21Z</time>
      </trkpt>
      <trkpt lat="48.80404" lon="2.19424">
        <ele>142</ele>
        <time>2013-05-01T06:56:33Z</time>
      </trkpt>
      <trkpt lat="48.80394" lon="2.19433">
        <ele>142</ele>
        <time>2013-05-01T06:56:43Z</time>
      </trkpt>
      <trkpt lat="48.80386" lon="2.19437">
        <ele>142</ele>
        <time>2013-05-01T06:56:49Z</time>
      </trkpt>
      <trkpt lat="48.80374" lon="2.19446">
        <ele>142</ele>
        <time>2013-05-01T06:56:59Z</time>
      </trkpt>
      <trkpt lat="48.80367" lon="2.19451">
        <ele>142</ele>
        <time>2013-05-01T06:57:21Z</time>
      </trkpt>
      <trkpt lat="48.80359" lon="2.1945">
        <ele>142</ele>
        <time>2013-05-01T06:57:49Z</time>
      </trkpt>
      <trkpt lat="48.80353" lon="2.19442">
        <ele>142</ele>
        <time>2013-05-01T06:57:56Z</time>
      </trkpt>
      <trkpt lat="48.80349" lon="2.19433">
        <ele>141</ele>
        <time>2013-05-01T06:58:04Z</time>
      </trkpt>
      <trkpt lat="48.80344" lon="2.19427">
        <ele>141</ele>
        <time>2013-05-01T06:58:14Z</time>
      </trkpt>
      <trkpt lat="48.80352" lon="2.1944">
        <ele>142</ele>
        <time>2013-05-01T06:58:30Z</time>
      </trkpt>
      <trkpt lat="48.80347" lon="2.1945">
        <ele>142</ele>
        <time>2013-05-01T06:58:49Z</time>
      </trkpt>
      <trkpt lat="48.8034" lon="2.19461">
        <ele>141</ele>
        <time>2013-05-01T06:59:03Z</time>
      </trkpt>
      <trkpt lat="48.8033" lon="2.19472">
        <ele>140</ele>
        <time>2013-05-01T06:59:07Z</time>
      </trkpt>
      <trkpt lat="48.80315" lon="2.19477">
        <ele>140</ele>
        <time>2013-05-01T06:59:18Z</time>
      </trkpt>
      <trkpt lat="48.80309" lon="2.19492">
        <ele>140</ele>
        <time>2013-05-01T06:59:26Z</time>
      </trkpt>
      <trkpt lat="48.80299" lon="2.19503">
        <ele>139</ele>
        <time>2013-05-01T06:59:35Z</time>
      </trkpt>
      <trkpt lat="48.80293" lon="2.19509">
        <ele>138</ele>
        <time>2013-05-01T06:59:41Z</time>
      </trkpt>
      <trkpt lat="48.80287" lon="2.19516">
        <ele>138</ele>
        <time>2013-05-01T06:59:49Z</time>
      </trkpt>
      <trkpt lat="48.8028" lon="2.19513">
        <ele>138</ele>
        <time>2013-05-01T07:00:04Z</time>
      </trkpt>
      <trkpt lat="48.8027" lon="2.19515">
        <ele>138</ele>
        <time>2013-05-01T07:00:22Z</time>
      </trkpt>
      <trkpt lat="48.80258" lon="2.19532">
        <ele>137</ele>
        <time>2013-05-01T07:00:32Z</time>
      </trkpt>
      <trkpt lat="48.80247" lon="2.19548">
        <ele>136</ele>
        <time>2013-05-01T07:00:39Z</time>
      </trkpt>
      <trkpt lat="48.8024" lon="2.19557">
        <ele>135</ele>
        <time>2013-05-01T07:00:43Z</time>
      </trkpt>
      <trkpt lat="48.80229" lon="2.19567">
        <ele>135</ele>
        <time>2013-05-01T07:00:48Z</time>
      </trkpt>
      <trkpt lat="48.8022" lon="2.19576">
        <ele>135</ele>
        <time>2013-05-01T07:00:52Z</time>
      </trkpt>
      <trkpt lat="48.80214" lon="2.19583">
        <ele>134</ele>
        <time>2013-05-01T07:00:55Z</time>
      </trkpt>
      <trkpt lat="48.80205" lon="2.19592">
        <ele>134</ele>
        <time>2013-05-01T07:01:00Z</time>
      </trkpt>
      <trkpt lat="48.80195" lon="2.196">
        <ele>134</ele>
        <time>2013-05-01T07:01:06Z</time>
      </trkpt>
      <trkpt lat="48.8018" lon="2.19609">
        <ele>133</ele>
        <time>2013-05-01T07:01:16Z</time>
      </trkpt>
      <trkpt lat="48.80173" lon="2.19612">
        <ele>133</ele>
        <time>2013-05-01T07:01:18Z</time>
      </trkpt>
      <trkpt lat="48.80166" lon="2.19613">
        <ele>131</ele>
        <time>2013-05-01T07:01:21Z</time>
      </trkpt>
      <trkpt lat="48.80158" lon="2.19615">
        <ele>130</ele>
        <time>2013-05-01T07:01:28Z</time>
      </trkpt>
      <trkpt lat="48.8015" lon="2.19619">
        <ele>130</ele>
        <time>2013-05-01T07:01:35Z</time>
      </trkpt>
      <trkpt lat="48.80144" lon="2.19627">
        <ele>130</ele>
        <time>2013-05-01T07:01:41Z</time>
      </trkpt>
      <trkpt lat="48.80137" lon="2.19631">
        <ele>129</ele>
        <time>2013-05-01T07:01:51Z</time>
      </trkpt>
      <trkpt lat="48.80128" lon="2.19639">
        <ele>129</ele>
        <time>2013-05-01T07:01:57Z</time>
      </trkpt>
      <trkpt lat="48.8012" lon="2.19643">
        <ele>129</ele>
        <time>2013-05-01T07:02:03Z</time>
      </trkpt>
      <trkpt lat="48.80113" lon="2.19647">
        <ele>128</ele>
        <time>2013-05-01T07:02:11Z</time>
      </trkpt>
      <trkpt lat="48.80104" lon="2.19651">
        <ele>128</ele>
        <time>2013-05-01T07:02:19Z</time>
      </trkpt>
      <trkpt lat="48.80098" lon="2.19658">
        <ele>127</ele>
        <time>2013-05-01T07:02:28Z</time>
      </trkpt>
      <trkpt lat="48.80088" lon="2.19669">
        <ele>126</ele>
        <time>2013-05-01T07:02:45Z</time>
      </trkpt>
      <trkpt lat="48.80083" lon="2.19677">
        <ele>123</ele>
        <time>2013-05-01T07:02:53Z</time>
      </trkpt>
      <trkpt lat="48.80069" lon="2.19685">
        <ele>122</ele>
        <time>2013-05-01T07:03:06Z</time>
      </trkpt>
      <trkpt lat="48.80052" lon="2.19702">
        <ele>121</ele>
        <time>2013-05-01T07:03:17Z</time>
      </trkpt>
      <trkpt lat="48.80042" lon="2.19712">
        <ele>120</ele>
        <time>2013-05-01T07:03:29Z</time>
      </trkpt>
      <trkpt lat="48.80032" lon="2.19719">
        <ele>120</ele>
        <time>2013-05-01T07:03:35Z</time>
      </trkpt>
      <trkpt lat="48.80027" lon="2.19723">
        <ele>119</ele>
        <time>2013-05-01T07:03:38Z</time>
      </trkpt>
      <trkpt lat="48.8002" lon="2.19728">
        <ele>119</ele>
        <time>2013-05-01T07:03:43Z</time>
      </trkpt>
      <trkpt lat="48.80011" lon="2.19736">
        <ele>118</ele>
        <time>2013-05-01T07:03:46Z</time>
      </trkpt>
      <trkpt lat="48.80001" lon="2.19741">
        <ele>118</ele>
        <time>2013-05-01T07:03:53Z</time>
      </trkpt>
      <trkpt lat="48.79994" lon="2.19745">
        <ele>115</ele>
        <time>2013-05-01T07:04:00Z</time>
      </trkpt>
      <trkpt lat="48.79988" lon="2.1975">
        <ele>117</ele>
        <time>2013-05-01T07:04:06Z</time>
      </trkpt>
      <trkpt lat="48.79979" lon="2.19757">
        <ele>117</ele>
        <time>2013-05-01T07:04:15Z</time>
      </trkpt>
      <trkpt lat="48.79972" lon="2.19762">
        <ele>117</ele>
        <time>2013-05-01T07:04:23Z</time>
      </trkpt>
      <trkpt lat="48.79964" lon="2.19769">
        <ele>117</ele>
        <time>2013-05-01T07:04:30Z</time>
      </trkpt>
      <trkpt lat="48.79957" lon="2.19773">
        <ele>117</ele>
        <time>2013-05-01T07:04:37Z</time>
      </trkpt>
      <trkpt lat="48.7995" lon="2.19783">
        <ele>117</ele>
        <time>2013-05-01T07:04:47Z</time>
      </trkpt>
      <trkpt lat="48.79939" lon="2.19787">
        <ele>117</ele>
        <time>2013-05-01T07:04:58Z</time>
      </trkpt>
      <trkpt lat="48.79932" lon="2.19793">
        <ele>117</ele>
        <time>2013-05-01T07:05:03Z</time>
      </trkpt>
      <trkpt lat="48.79922" lon="2.19801">
        <ele>117</ele>
        <time>2013-05-01T07:05:11Z</time>
      </trkpt>
      <trkpt lat="48.79912" lon="2.19809">
        <ele>116</ele>
        <time>2013-05-01T07:05:19Z</time>
      </trkpt>
      <trkpt lat="48.79901" lon="2.1981">
        <ele>116</ele>
        <time>2013-05-01T07:05:31Z</time>
      </trkpt>
      <trkpt lat="48.79895" lon="2.19816">
        <ele>116</ele>
        <time>2013-05-01T07:05:37Z</time>
      </trkpt>
      <trkpt lat="48.79888" lon="2.19823">
        <ele>116</ele>
        <time>2013-05-01T07:05:42Z</time>
      </trkpt>
      <trkpt lat="48.79881" lon="2.19827">
        <ele>116</ele>
        <time>2013-05-01T07:05:48Z</time>
      </trkpt>
      <trkpt lat="48.79874" lon="2.19833">
        <ele>116</ele>
        <time>2013-05-01T07:06:13Z</time>
      </trkpt>
      <trkpt lat="48.7987" lon="2.19838">
        <ele>120</ele>
        <time>2013-05-01T07:06:33Z</time>
      </trkpt>
      <trkpt lat="48.79864" lon="2.1983">
        <ele>115</ele>
        <time>2013-05-01T07:07:16Z</time>
      </trkpt>
      <trkpt lat="48.79863" lon="2.19841">
        <ele>120</ele>
        <time>2013-05-01T07:07:56Z</time>
      </trkpt>
      <trkpt lat="48.79865" lon="2.19852">
        <ele>120</ele>
        <time>2013-05-01T07:08:03Z</time>
      </trkpt>
      <trkpt lat="48.79873" lon="2.19863">
        <ele>121</ele>
        <time>2013-05-01T07:08:20Z</time>
      </trkpt>
      <trkpt lat="48.79866" lon="2.1986">
        <ele>121</ele>
        <time>2013-05-01T07:09:50Z</time>
      </trkpt>
      <trkpt lat="48.79862" lon="2.19848">
        <ele>120</ele>
        <time>2013-05-01T07:09:55Z</time>
      </trkpt>
      <trkpt lat="48.79859" lon="2.19837">
        <ele>119</ele>
        <time>2013-05-01T07:10:01Z</time>
      </trkpt>
      <trkpt lat="48.79847" lon="2.19845">
        <ele>119</ele>
        <time>2013-05-01T07:10:13Z</time>
      </trkpt>
      <trkpt lat="48.79839" lon="2.19853">
        <ele>119</ele>
        <time>2013-05-01T07:10:49Z</time>
      </trkpt>
      <trkpt lat="48.79833" lon="2.19858">
        <ele>119</ele>
        <time>2013-05-01T07:10:55Z</time>
      </trkpt>
      <trkpt lat="48.79826" lon="2.19863">
        <ele>119</ele>
        <time>2013-05-01T07:11:00Z</time>
      </trkpt>
      <trkpt lat="48.79818" lon="2.19869">
        <ele>120</ele>
        <time>2013-05-01T07:11:05Z</time>
      </trkpt>
      <trkpt lat="48.7981" lon="2.19876">
        <ele>120</ele>
        <time>2013-05-01T07:11:13Z</time>
      </trkpt>
      <trkpt lat="48.79801" lon="2.1988">
        <ele>120</ele>
        <time>2013-05-01T07:11:22Z</time>
      </trkpt>
      <trkpt lat="48.79792" lon="2.19886">
        <ele>120</ele>
        <time>2013-05-01T07:11:29Z</time>
      </trkpt>
      <trkpt lat="48.79785" lon="2.19891">
        <ele>120</ele>
        <time>2013-05-01T07:11:36Z</time>
      </trkpt>
      <trkpt lat="48.79778" lon="2.19896">
        <ele>120</ele>
        <time>2013-05-01T07:11:43Z</time>
      </trkpt>
      <trkpt lat="48.79767" lon="2.19906">
        <ele>121</ele>
        <time>2013-05-01T07:11:53Z</time>
      </trkpt>
      <trkpt lat="48.79759" lon="2.19917">
        <ele>123</ele>
        <time>2013-05-01T07:11:59Z</time>
      </trkpt>
      <trkpt lat="48.79751" lon="2.19924">
        <ele>123</ele>
        <time>2013-05-01T07:12:03Z</time>
      </trkpt>
      <trkpt lat="48.79743" lon="2.19927">
        <ele>121</ele>
        <time>2013-05-01T07:12:09Z</time>
      </trkpt>
      <trkpt lat="48.79736" lon="2.19931">
        <ele>122</ele>
        <time>2013-05-01T07:12:16Z</time>
      </trkpt>
      <trkpt lat="48.7973" lon="2.19935">
        <ele>122</ele>
        <time>2013-05-01T07:12:22Z</time>
      </trkpt>
      <trkpt lat="48.79722" lon="2.19939">
        <ele>122</ele>
        <time>2013-05-01T07:12:28Z</time>
      </trkpt>
      <trkpt lat="48.79715" lon="2.19944">
        <ele>122</ele>
        <time>2013-05-01T07:12:36Z</time>
      </trkpt>
      <trkpt lat="48.7971" lon="2.19954">
        <ele>122</ele>
        <time>2013-05-01T07:12:41Z</time>
      </trkpt>
      <trkpt lat="48.79703" lon="2.19962">
        <ele>122</ele>
        <time>2013-05-01T07:12:47Z</time>
      </trkpt>
      <trkpt lat="48.79698" lon="2.19972">
        <ele>122</ele>
        <time>2013-05-01T07:12:55Z</time>
      </trkpt>
      <trkpt lat="48.79689" lon="2.19984">
        <ele>122</ele>
        <time>2013-05-01T07:13:04Z</time>
      </trkpt>
      <trkpt lat="48.79677" lon="2.19997">
        <ele>122</ele>
        <time>2013-05-01T07:13:15Z</time>
      </trkpt>
      <trkpt lat="48.7967" lon="2.20011">
        <ele>124</ele>
        <time>2013-05-01T07:13:21Z</time>
      </trkpt>
      <trkpt lat="48.79664" lon="2.20021">
        <ele>123</ele>
        <time>2013-05-01T07:13:25Z</time>
      </trkpt>
      <trkpt lat="48.79656" lon="2.20026">
        <ele>123</ele>
        <time>2013-05-01T07:13:31Z</time>
      </trkpt>
      <trkpt lat="48.79648" lon="2.20029">
        <ele>123</ele>
        <time>2013-05-01T07:13:37Z</time>
      </trkpt>
      <trkpt lat="48.79641" lon="2.20032">
        <ele>123</ele>
        <time>2013-05-01T07:13:44Z</time>
      </trkpt>
      <trkpt lat="48.79632" lon="2.20038">
        <ele>123</ele>
        <time>2013-05-01T07:13:51Z</time>
      </trkpt>
      <trkpt lat="48.79624" lon="2.20044">
        <ele>123</ele>
        <time>2013-05-01T07:13:58Z</time>
      </trkpt>
      <trkpt lat="48.79617" lon="2.20047">
        <ele>123</ele>
        <time>2013-05-01T07:14:05Z</time>
      </trkpt>
      <trkpt lat="48.7961" lon="2.20054">
        <ele>123</ele>
        <time>2013-05-01T07:14:12Z</time>
      </trkpt>
      <trkpt lat="48.79602" lon="2.2006">
        <ele>123</ele>
        <time>2013-05-01T07:14:20Z</time>
      </trkpt>
      <trkpt lat="48.79594" lon="2.20064">
        <ele>123</ele>
        <time>2013-05-01T07:14:27Z</time>
      </trkpt>
      <trkpt lat="48.79587" lon="2.20069">
        <ele>123</ele>
        <time>2013-05-01T07:14:35Z</time>
      </trkpt>
      <trkpt lat="48.79581" lon="2.20074">
        <ele>123</ele>
        <time>2013-05-01T07:14:50Z</time>
      </trkpt>
      <trkpt lat="48.7957" lon="2.2008">
        <ele>122</ele>
        <time>2013-05-01T07:15:00Z</time>
      </trkpt>
      <trkpt lat="48.79561" lon="2.2009">
        <ele>126</ele>
        <time>2013-05-01T07:15:09Z</time>
      </trkpt>
      <trkpt lat="48.7955" lon="2.20097">
        <ele>127</ele>
        <time>2013-05-01T07:15:18Z</time>
      </trkpt>
      <trkpt lat="48.79539" lon="2.20101">
        <ele>127</ele>
        <time>2013-05-01T07:15:25Z</time>
      </trkpt>
      <trkpt lat="48.7953" lon="2.2011">
        <ele>127</ele>
        <time>2013-05-01T07:15:31Z</time>
      </trkpt>
      <trkpt lat="48.79523" lon="2.20117">
        <ele>127</ele>
        <time>2013-05-01T07:15:35Z</time>
      </trkpt>
      <trkpt lat="48.79514" lon="2.20126">
        <ele>128</ele>
        <time>2013-05-01T07:15:41Z</time>
      </trkpt>
      <trkpt lat="48.79507" lon="2.20132">
        <ele>128</ele>
        <time>2013-05-01T07:15:44Z</time>
      </trkpt>
      <trkpt lat="48.79498" lon="2.20138">
        <ele>129</ele>
        <time>2013-05-01T07:15:54Z</time>
      </trkpt>
      <trkpt lat="48.79488" lon="2.20146">
        <ele>130</ele>
        <time>2013-05-01T07:16:15Z</time>
      </trkpt>
      <trkpt lat="48.79486" lon="2.20163">
        <ele>131</ele>
        <time>2013-05-01T07:16:31Z</time>
      </trkpt>
      <trkpt lat="48.79479" lon="2.20168">
        <ele>133</ele>
        <time>2013-05-01T07:16:38Z</time>
      </trkpt>
      <trkpt lat="48.79474" lon="2.20177">
        <ele>133</ele>
        <time>2013-05-01T07:16:45Z</time>
      </trkpt>
      <trkpt lat="48.7947" lon="2.20194">
        <ele>133</ele>
        <time>2013-05-01T07:16:59Z</time>
      </trkpt>
      <trkpt lat="48.79467" lon="2.20206">
        <ele>133</ele>
        <time>2013-05-01T07:17:03Z</time>
      </trkpt>
      <trkpt lat="48.79462" lon="2.20227">
        <ele>133</ele>
        <time>2013-05-01T07:17:10Z</time>
      </trkpt>
      <trkpt lat="48.79454" lon="2.20246">
        <ele>133</ele>
        <time>2013-05-01T07:17:18Z</time>
      </trkpt>
      <trkpt lat="48.79448" lon="2.20256">
        <ele>137</ele>
        <time>2013-05-01T07:17:23Z</time>
      </trkpt>
      <trkpt lat="48.7944" lon="2.20266">
        <ele>137</ele>
        <time>2013-05-01T07:17:31Z</time>
      </trkpt>
      <trkpt lat="48.79433" lon="2.2028">
        <ele>137</ele>
        <time>2013-05-01T07:17:42Z</time>
      </trkpt>
      <trkpt lat="48.79429" lon="2.2029">
        <ele>138</ele>
        <time>2013-05-01T07:17:51Z</time>
      </trkpt>
      <trkpt lat="48.79424" lon="2.20304">
        <ele>138</ele>
        <time>2013-05-01T07:18:01Z</time>
      </trkpt>
      <trkpt lat="48.79422" lon="2.20315">
        <ele>139</ele>
        <time>2013-05-01T07:18:10Z</time>
      </trkpt>
      <trkpt lat="48.79427" lon="2.20326">
        <ele>139</ele>
        <time>2013-05-01T07:18:17Z</time>
      </trkpt>
      <trkpt lat="48.79432" lon="2.20341">
        <ele>142</ele>
        <time>2013-05-01T07:18:27Z</time>
      </trkpt>
      <trkpt lat="48.79437" lon="2.20352">
        <ele>143</ele>
        <time>2013-05-01T07:18:34Z</time>
      </trkpt>
      <trkpt lat="48.79443" lon="2.20364">
        <ele>144</ele>
        <time>2013-05-01T07:18:43Z</time>
      </trkpt>
      <trkpt lat="48.79445" lon="2.20386">
        <ele>145</ele>
        <time>2013-05-01T07:18:59Z</time>
      </trkpt>
      <trkpt lat="48.79444" lon="2.20397">
        <ele>145</ele>
        <time>2013-05-01T07:19:02Z</time>
      </trkpt>
      <trkpt lat="48.79446" lon="2.20415">
        <ele>145</ele>
        <time>2013-05-01T07:19:07Z</time>
      </trkpt>
      <trkpt lat="48.79449" lon="2.20426">
        <ele>150</ele>
        <time>2013-05-01T07:19:12Z</time>
      </trkpt>
      <trkpt lat="48.7945" lon="2.20438">
        <ele>151</ele>
        <time>2013-05-01T07:19:20Z</time>
      </trkpt>
      <trkpt lat="48.79455" lon="2.20449">
        <ele>152</ele>
        <time>2013-05-01T07:19:54Z</time>
      </trkpt>
      <trkpt lat="48.79459" lon="2.20465">
        <ele>153</ele>
        <time>2013-05-01T07:20:06Z</time>
      </trkpt>
      <trkpt lat="48.79456" lon="2.20481">
        <ele>153</ele>
        <time>2013-05-01T07:20:18Z</time>
      </trkpt>
      <trkpt lat="48.79451" lon="2.20494">
        <ele>153</ele>
        <time>2013-05-01T07:20:28Z</time>
      </trkpt>
      <trkpt lat="48.79448" lon="2.20507">
        <ele>156</ele>
        <time>2013-05-01T07:20:35Z</time>
      </trkpt>
      <trkpt lat="48.79444" lon="2.20526">
        <ele>156</ele>
        <time>2013-05-01T07:20:43Z</time>
      </trkpt>
      <trkpt lat="48.79442" lon="2.20543">
        <ele>156</ele>
        <time>2013-05-01T07:20:49Z</time>
      </trkpt>
      <trkpt lat="48.79438" lon="2.20556">
        <ele>156</ele>
        <time>2013-05-01T07:20:54Z</time>
      </trkpt>
      <trkpt lat="48.79436" lon="2.20568">
        <ele>155</ele>
        <time>2013-05-01T07:20:58Z</time>
      </trkpt>
      <trkpt lat="48.79435" lon="2.20581">
        <ele>154</ele>
        <time>2013-05-01T07:21:03Z</time>
      </trkpt>
      <trkpt lat="48.79437" lon="2.20592">
        <ele>157</ele>
        <time>2013-05-01T07:21:06Z</time>
      </trkpt>
      <trkpt lat="48.79439" lon="2.20602">
        <ele>158</ele>
        <time>2013-05-01T07:21:12Z</time>
      </trkpt>
      <trkpt lat="48.79439" lon="2.20616">
        <ele>159</ele>
        <time>2013-05-01T07:21:22Z</time>
      </trkpt>
      <trkpt lat="48.79439" lon="2.20629">
        <ele>159</ele>
        <time>2013-05-01T07:21:29Z</time>
      </trkpt>
      <trkpt lat="48.79439" lon="2.2064">
        <ele>160</ele>
        <time>2013-05-01T07:21:35Z</time>
      </trkpt>
      <trkpt lat="48.79438" lon="2.20658">
        <ele>159</ele>
        <time>2013-05-01T07:21:45Z</time>
      </trkpt>
      <trkpt lat="48.79437" lon="2.20669">
        <ele>161</ele>
        <time>2013-05-01T07:21:52Z</time>
      </trkpt>
      <trkpt lat="48.79435" lon="2.20682">
        <ele>162</ele>
        <time>2013-05-01T07:21:59Z</time>
      </trkpt>
      <trkpt lat="48.79433" lon="2.20697">
        <ele>163</ele>
        <time>2013-05-01T07:22:08Z</time>
      </trkpt>
      <trkpt lat="48.79431" lon="2.20714">
        <ele>163</ele>
        <time>2013-05-01T07:22:18Z</time>
      </trkpt>
      <trkpt lat="48.7943" lon="2.20726">
        <ele>163</ele>
        <time>2013-05-01T07:22:25Z</time>
      </trkpt>
      <trkpt lat="48.79424" lon="2.20741">
        <ele>162</ele>
        <time>2013-05-01T07:22:33Z</time>
      </trkpt>
      <trkpt lat="48.79419" lon="2.20757">
        <ele>163</ele>
        <time>2013-05-01T07:22:43Z</time>
      </trkpt>
      <trkpt lat="48.79415" lon="2.20769">
        <ele>164</ele>
        <time>2013-05-01T07:22:46Z</time>
      </trkpt>
      <trkpt lat="48.79412" lon="2.20781">
        <ele>165</ele>
        <time>2013-05-01T07:22:49Z</time>
      </trkpt>
      <trkpt lat="48.79411" lon="2.2079">
        <ele>166</ele>
        <time>2013-05-01T07:22:54Z</time>
      </trkpt>
      <trkpt lat="48.79407" lon="2.20803">
        <ele>167</ele>
        <time>2013-05-01T07:23:05Z</time>
      </trkpt>
      <trkpt lat="48.794" lon="2.20809">
        <ele>167</ele>
        <time>2013-05-01T07:23:16Z</time>
      </trkpt>
      <trkpt lat="48.79407" lon="2.20806">
        <ele>167</ele>
        <time>2013-05-01T07:23:35Z</time>
      </trkpt>
      <trkpt lat="48.79395" lon="2.20809">
        <ele>167</ele>
        <time>2013-05-01T07:23:50Z</time>
      </trkpt>
      <trkpt lat="48.79387" lon="2.20811">
        <ele>167</ele>
        <time>2013-05-01T07:23:58Z</time>
      </trkpt>
      <trkpt lat="48.79375" lon="2.20819">
        <ele>168</ele>
        <time>2013-05-01T07:24:05Z</time>
      </trkpt>
      <trkpt lat="48.79367" lon="2.20824">
        <ele>168</ele>
        <time>2013-05-01T07:24:11Z</time>
      </trkpt>
      <trkpt lat="48.79355" lon="2.20827">
        <ele>169</ele>
        <time>2013-05-01T07:24:19Z</time>
      </trkpt>
      <trkpt lat="48.79343" lon="2.20827">
        <ele>170</ele>
        <time>2013-05-01T07:24:29Z</time>
      </trkpt>
      <trkpt lat="48.79333" lon="2.20837">
        <ele>172</ele>
        <time>2013-05-01T07:24:37Z</time>
      </trkpt>
      <trkpt lat="48.79324" lon="2.20845">
        <ele>171</ele>
        <time>2013-05-01T07:24:42Z</time>
      </trkpt>
      <trkpt lat="48.79317" lon="2.20851">
        <ele>171</ele>
        <time>2013-05-01T07:24:47Z</time>
      </trkpt>
      <trkpt lat="48.79311" lon="2.20856">
        <ele>171</ele>
        <time>2013-05-01T07:24:51Z</time>
      </trkpt>
      <trkpt lat="48.79305" lon="2.20863">
        <ele>171</ele>
        <time>2013-05-01T07:24:58Z</time>
      </trkpt>
      <trkpt lat="48.793" lon="2.20878">
        <ele>171</ele>
        <time>2013-05-01T07:25:09Z</time>
      </trkpt>
      <trkpt lat="48.79303" lon="2.20897">
        <ele>171</ele>
        <time>2013-05-01T07:25:18Z</time>
      </trkpt>
      <trkpt lat="48.79305" lon="2.20913">
        <ele>171</ele>
        <time>2013-05-01T07:25:24Z</time>
      </trkpt>
      <trkpt lat="48.79308" lon="2.20924">
        <ele>172</ele>
        <time>2013-05-01T07:25:32Z</time>
      </trkpt>
      <trkpt lat="48.79316" lon="2.20929">
        <ele>172</ele>
        <time>2013-05-01T07:25:41Z</time>
      </trkpt>
      <trkpt lat="48.79322" lon="2.20937">
        <ele>172</ele>
        <time>2013-05-01T07:25:49Z</time>
      </trkpt>
      <trkpt lat="48.79326" lon="2.20948">
        <ele>172</ele>
        <time>2013-05-01T07:25:58Z</time>
      </trkpt>
      <trkpt lat="48.79334" lon="2.2095">
        <ele>174</ele>
        <time>2013-05-01T07:26:05Z</time>
      </trkpt>
      <trkpt lat="48.7934" lon="2.20959">
        <ele>174</ele>
        <time>2013-05-01T07:26:14Z</time>
      </trkpt>
      <trkpt lat="48.79347" lon="2.20962">
        <ele>174</ele>
        <time>2013-05-01T07:26:19Z</time>
      </trkpt>
      <trkpt lat="48.79351" lon="2.20973">
        <ele>174</ele>
        <time>2013-05-01T07:26:29Z</time>
      </trkpt>
      <trkpt lat="48.7936" lon="2.20985">
        <ele>174</ele>
        <time>2013-05-01T07:26:41Z</time>
      </trkpt>
      <trkpt lat="48.79366" lon="2.2099">
        <ele>174</ele>
        <time>2013-05-01T07:26:57Z</time>
      </trkpt>
      <trkpt lat="48.79373" lon="2.20997">
        <ele>174</ele>
        <time>2013-05-01T07:27:13Z</time>
      </trkpt>
      <trkpt lat="48.79382" lon="2.2101">
        <ele>176</ele>
        <time>2013-05-01T07:27:22Z</time>
      </trkpt>
      <trkpt lat="48.7938" lon="2.21022">
        <ele>176</ele>
        <time>2013-05-01T07:28:25Z</time>
      </trkpt>
      <trkpt lat="48.79382" lon="2.21035">
        <ele>176</ele>
        <time>2013-05-01T07:28:36Z</time>
      </trkpt>
      <trkpt lat="48.7938" lon="2.21047">
        <ele>176</ele>
        <time>2013-05-01T07:28:42Z</time>
      </trkpt>
      <trkpt lat="48.79384" lon="2.21061">
        <ele>177</ele>
        <time>2013-05-01T07:29:12Z</time>
      </trkpt>
      <trkpt lat="48.79384" lon="2.21081">
        <ele>177</ele>
        <time>2013-05-01T07:29:32Z</time>
      </trkpt>
      <trkpt lat="48.79383" lon="2.21093">
        <ele>178</ele>
        <time>2013-05-01T07:29:41Z</time>
      </trkpt>
      <trkpt lat="48.79385" lon="2.21117">
        <ele>178</ele>
        <time>2013-05-01T07:29:53Z</time>
      </trkpt>
      <trkpt lat="48.79389" lon="2.21132">
        <ele>178</ele>
        <time>2013-05-01T07:30:00Z</time>
      </trkpt>
      <trkpt lat="48.7939" lon="2.21145">
        <ele>178</ele>
        <time>2013-05-01T07:30:04Z</time>
      </trkpt>
      <trkpt lat="48.7939" lon="2.21159">
        <ele>178</ele>
        <time>2013-05-01T07:30:08Z</time>
      </trkpt>
      <trkpt lat="48.79389" lon="2.2118">
        <ele>178</ele>
        <time>2013-05-01T07:30:13Z</time>
      </trkpt>
      <trkpt lat="48.79389" lon="2.21191">
        <ele>179</ele>
        <time>2013-05-01T07:30:17Z</time>
      </trkpt>
      <trkpt lat="48.79387" lon="2.21207">
        <ele>179</ele>
        <time>2013-05-01T07:30:25Z</time>
      </trkpt>
      <trkpt lat="48.79382" lon="2.21221">
        <ele>179</ele>
        <time>2013-05-01T07:30:33Z</time>
      </trkpt>
      <trkpt lat="48.79381" lon="2.21236">
        <ele>179</ele>
        <time>2013-05-01T07:30:37Z</time>
      </trkpt>
      <trkpt lat="48.79382" lon="2.2125">
        <ele>179</ele>
        <time>2013-05-01T07:30:42Z</time>
      </trkpt>
      <trkpt lat="48.79384" lon="2.2126">
        <ele>180</ele>
        <time>2013-05-01T07:30:48Z</time>
      </trkpt>
      <trkpt lat="48.79382" lon="2.21279">
        <ele>181</ele>
        <time>2013-05-01T07:31:02Z</time>
      </trkpt>
      <trkpt lat="48.79382" lon="2.21291">
        <ele>181</ele>
        <time>2013-05-01T07:31:08Z</time>
      </trkpt>
      <trkpt lat="48.79384" lon="2.21312">
        <ele>181</ele>
        <time>2013-05-01T07:31:20Z</time>
      </trkpt>
      <trkpt lat="48.79386" lon="2.21335">
        <ele>183</ele>
        <time>2013-05-01T07:31:33Z</time>
      </trkpt>
      <trkpt lat="48.79387" lon="2.21358">
        <ele>183</ele>
        <time>2013-05-01T07:31:40Z</time>
      </trkpt>
      <trkpt lat="48.79388" lon="2.21375">
        <ele>184</ele>
        <time>2013-05-01T07:31:47Z</time>
      </trkpt>
      <trkpt lat="48.79384" lon="2.21391">
        <ele>184</ele>
        <time>2013-05-01T07:31:51Z</time>
      </trkpt>
      <trkpt lat="48.79384" lon="2.21402">
        <ele>184</ele>
        <time>2013-05-01T07:31:56Z</time>
      </trkpt>
      <trkpt lat="48.79382" lon="2.21414">
        <ele>185</ele>
        <time>2013-05-01T07:32:02Z</time>
      </trkpt>
      <trkpt lat="48.79382" lon="2.21432">
        <ele>186</ele>
        <time>2013-05-01T07:32:13Z</time>
      </trkpt>
      <trkpt lat="48.79385" lon="2.21454">
        <ele>187</ele>
        <time>2013-05-01T07:32:28Z</time>
      </trkpt>
      <trkpt lat="48.79387" lon="2.21472">
        <ele>187</ele>
        <time>2013-05-01T07:32:40Z</time>
      </trkpt>
      <trkpt lat="48.79387" lon="2.21491">
        <ele>187</ele>
        <time>2013-05-01T07:32:46Z</time>
      </trkpt>
      <trkpt lat="48.79385" lon="2.21505">
        <ele>187</ele>
        <time>2013-05-01T07:32:49Z</time>
      </trkpt>
      <trkpt lat="48.79382" lon="2.21515">
        <ele>187</ele>
        <time>2013-05-01T07:32:52Z</time>
      </trkpt>
      <trkpt lat="48.79377" lon="2.21524">
        <ele>187</ele>
        <time>2013-05-01T07:32:57Z</time>
      </trkpt>
      <trkpt lat="48.79379" lon="2.21536">
        <ele>187</ele>
        <time>2013-05-01T07:33:03Z</time>
      </trkpt>
      <trkpt lat="48.79376" lon="2.21548">
        <ele>187</ele>
        <time>2013-05-01T07:33:10Z</time>
      </trkpt>
      <trkpt lat="48.79371" lon="2.21558">
        <ele>187</ele>
        <time>2013-05-01T07:33:17Z</time>
      </trkpt>
      <trkpt lat="48.79371" lon="2.21573">
        <ele>187</ele>
        <time>2013-05-01T07:33:25Z</time>
      </trkpt>
      <trkpt lat="48.79374" lon="2.21593">
        <ele>185</ele>
        <time>2013-05-01T07:33:37Z</time>
      </trkpt>
      <trkpt lat="48.79382" lon="2.21609">
        <ele>184</ele>
        <time>2013-05-01T07:33:47Z</time>
      </trkpt>
      <trkpt lat="48.79383" lon="2.21626">
        <ele>183</ele>
        <time>2013-05-01T07:33:58Z</time>
      </trkpt>
      <trkpt lat="48.79381" lon="2.21637">
        <ele>183</ele>
        <time>2013-05-01T07:34:04Z</time>
      </trkpt>
      <trkpt lat="48.79379" lon="2.21649">
        <ele>182</ele>
        <time>2013-05-01T07:34:11Z</time>
      </trkpt>
      <trkpt lat="48.7938" lon="2.21665">
        <ele>182</ele>
        <time>2013-05-01T07:34:19Z</time>
      </trkpt>
      <trkpt lat="48.7938" lon="2.21676">
        <ele>179</ele>
        <time>2013-05-01T07:34:25Z</time>
      </trkpt>
      <trkpt lat="48.79382" lon="2.21695">
        <ele>179</ele>
        <time>2013-05-01T07:34:34Z</time>
      </trkpt>
      <trkpt lat="48.79382" lon="2.21709">
        <ele>178</ele>
        <time>2013-05-01T07:34:40Z</time>
      </trkpt>
      <trkpt lat="48.79384" lon="2.21723">
        <ele>178</ele>
        <time>2013-05-01T07:34:43Z</time>
      </trkpt>
      <trkpt lat="48.79383" lon="2.21737">
        <ele>177</ele>
        <time>2013-05-01T07:34:48Z</time>
      </trkpt>
      <trkpt lat="48.79384" lon="2.21749">
        <ele>177</ele>
        <time>2013-05-01T07:34:54Z</time>
      </trkpt>
      <trkpt lat="48.79384" lon="2.21762">
        <ele>175</ele>
        <time>2013-05-01T07:35:00Z</time>
      </trkpt>
      <trkpt lat="48.79382" lon="2.21773">
        <ele>175</ele>
        <time>2013-05-01T07:35:05Z</time>
      </trkpt>
      <trkpt lat="48.7938" lon="2.21784">
        <ele>175</ele>
        <time>2013-05-01T07:35:11Z</time>
      </trkpt>
      <trkpt lat="48.7938" lon="2.21796">
        <ele>174</ele>
        <time>2013-05-01T07:35:20Z</time>
      </trkpt>
      <trkpt lat="48.7938" lon="2.21809">
        <ele>174</ele>
        <time>2013-05-01T07:35:24Z</time>
      </trkpt>
      <trkpt lat="48.79379" lon="2.21821">
        <ele>174</ele>
        <time>2013-05-01T07:35:30Z</time>
      </trkpt>
      <trkpt lat="48.79372" lon="2.2183">
        <ele>174</ele>
        <time>2013-05-01T07:35:37Z</time>
      </trkpt>
      <trkpt lat="48.79367" lon="2.2184">
        <ele>172</ele>
        <time>2013-05-01T07:35:43Z</time>
      </trkpt>
      <trkpt lat="48.79365" lon="2.21852">
        <ele>172</ele>
        <time>2013-05-01T07:35:49Z</time>
      </trkpt>
      <trkpt lat="48.79368" lon="2.21862">
        <ele>172</ele>
        <time>2013-05-01T07:35:58Z</time>
      </trkpt>
      <trkpt lat="48.79371" lon="2.21873">
        <ele>172</ele>
        <time>2013-05-01T07:36:03Z</time>
      </trkpt>
      <trkpt lat="48.79374" lon="2.21886">
        <ele>172</ele>
        <time>2013-05-01T07:36:08Z</time>
      </trkpt>
      <trkpt lat="48.79377" lon="2.21894">
        <ele>172</ele>
        <time>2013-05-01T07:36:13Z</time>
      </trkpt>
      <trkpt lat="48.79378" lon="2.21903">
        <ele>171</ele>
        <time>2013-05-01T07:36:17Z</time>
      </trkpt>
      <trkpt lat="48.7938" lon="2.21912">
        <ele>171</ele>
        <time>2013-05-01T07:36:22Z</time>
      </trkpt>
      <trkpt lat="48.79382" lon="2.21921">
        <ele>171</ele>
        <time>2013-05-01T07:36:27Z</time>
      </trkpt>
      <trkpt lat="48.79378" lon="2.21931">
        <ele>171</ele>
        <time>2013-05-01T07:36:51Z</time>
      </trkpt>
      <trkpt lat="48.79382" lon="2.21941">
        <ele>171</ele>
        <time>2013-05-01T07:36:58Z</time>
      </trkpt>
      <trkpt lat="48.79386" lon="2.21947">
        <ele>170</ele>
        <time>2013-05-01T07:37:03Z</time>
      </trkpt>
      <trkpt lat="48.79389" lon="2.21943">
        <ele>170</ele>
        <time>2013-05-01T07:37:25Z</time>
      </trkpt>
      <trkpt lat="48.79394" lon="2.21951">
        <ele>170</ele>
        <time>2013-05-01T07:38:36Z</time>
      </trkpt>
      <trkpt lat="48.79389" lon="2.21951">
        <ele>170</ele>
        <time>2013-05-01T07:39:20Z</time>
      </trkpt>
      <trkpt lat="48.79388" lon="2.2196">
        <ele>170</ele>
        <time>2013-05-01T07:39:57Z</time>
      </trkpt>
      <trkpt lat="48.79388" lon="2.21973">
        <ele>170</ele>
        <time>2013-05-01T07:40:04Z</time>
      </trkpt>
      <trkpt lat="48.79388" lon="2.21985">
        <ele>170</ele>
        <time>2013-05-01T07:40:10Z</time>
      </trkpt>
      <trkpt lat="48.79392" lon="2.21999">
        <ele>170</ele>
        <time>2013-05-01T07:40:17Z</time>
      </trkpt>
      <trkpt lat="48.79395" lon="2.22012">
        <ele>170</ele>
        <time>2013-05-01T07:40:25Z</time>
      </trkpt>
      <trkpt lat="48.79397" lon="2.22023">
        <ele>170</ele>
        <time>2013-05-01T07:40:32Z</time>
      </trkpt>
      <trkpt lat="48.79401" lon="2.22032">
        <ele>170</ele>
        <time>2013-05-01T07:40:41Z</time>
      </trkpt>
      <trkpt lat="48.79406" lon="2.2204">
        <ele>170</ele>
        <time>2013-05-01T07:40:49Z</time>
      </trkpt>
      <trkpt lat="48.79418" lon="2.22056">
        <ele>170</ele>
        <time>2013-05-01T07:41:00Z</time>
      </trkpt>
      <trkpt lat="48.79421" lon="2.22072">
        <ele>170</ele>
        <time>2013-05-01T07:41:08Z</time>
      </trkpt>
      <trkpt lat="48.79424" lon="2.22084">
        <ele>170</ele>
        <time>2013-05-01T07:41:13Z</time>
      </trkpt>
      <trkpt lat="48.79428" lon="2.22094">
        <ele>170</ele>
        <time>2013-05-01T07:41:18Z</time>
      </trkpt>
      <trkpt lat="48.79434" lon="2.22108">
        <ele>170</ele>
        <time>2013-05-01T07:41:28Z</time>
      </trkpt>
      <trkpt lat="48.79444" lon="2.22123">
        <ele>171</ele>
        <time>2013-05-01T07:41:37Z</time>
      </trkpt>
      <trkpt lat="48.79451" lon="2.22131">
        <ele>171</ele>
        <time>2013-05-01T07:41:45Z</time>
      </trkpt>
      <trkpt lat="48.79456" lon="2.22141">
        <ele>171</ele>
        <time>2013-05-01T07:41:52Z</time>
      </trkpt>
      <trkpt lat="48.79463" lon="2.22154">
        <ele>171</ele>
        <time>2013-05-01T07:42:17Z</time>
      </trkpt>
      <trkpt lat="48.79471" lon="2.22161">
        <ele>170</ele>
        <time>2013-05-01T07:42:21Z</time>
      </trkpt>
      <trkpt lat="48.79473" lon="2.22174">
        <ele>171</ele>
        <time>2013-05-01T07:42:29Z</time>
      </trkpt>
      <trkpt lat="48.79471" lon="2.22185">
        <ele>171</ele>
        <time>2013-05-01T07:42:32Z</time>
      </trkpt>
      <trkpt lat="48.79469" lon="2.22203">
        <ele>171</ele>
        <time>2013-05-01T07:42:40Z</time>
      </trkpt>
      <trkpt lat="48.79469" lon="2.22215">
        <ele>171</ele>
        <time>2013-05-01T07:42:46Z</time>
      </trkpt>
      <trkpt lat="48.79475" lon="2.22222">
        <ele>171</ele>
        <time>2013-05-01T07:42:53Z</time>
      </trkpt>
      <trkpt lat="48.79481" lon="2.22232">
        <ele>171</ele>
        <time>2013-05-01T07:43:00Z</time>
      </trkpt>
      <trkpt lat="48.79489" lon="2.22243">
        <ele>171</ele>
        <time>2013-05-01T07:43:08Z</time>
      </trkpt>
      <trkpt lat="48.79495" lon="2.22249">
        <ele>170</ele>
        <time>2013-05-01T07:43:13Z</time>
      </trkpt>
      <trkpt lat="48.795" lon="2.22254">
        <ele>170</ele>
        <time>2013-05-01T07:43:16Z</time>
      </trkpt>
      <trkpt lat="48.79507" lon="2.2226">
        <ele>169</ele>
        <time>2013-05-01T07:43:21Z</time>
      </trkpt>
      <trkpt lat="48.79514" lon="2.22268">
        <ele>169</ele>
        <time>2013-05-01T07:43:27Z</time>
      </trkpt>
      <trkpt lat="48.79519" lon="2.22274">
        <ele>169</ele>
        <time>2013-05-01T07:43:33Z</time>
      </trkpt>
      <trkpt lat="48.79526" lon="2.22279">
        <ele>169</ele>
        <time>2013-05-01T07:43:39Z</time>
      </trkpt>
      <trkpt lat="48.79531" lon="2.22283">
        <ele>169</ele>
        <time>2013-05-01T07:43:42Z</time>
      </trkpt>
      <trkpt lat="48.79536" lon="2.22287">
        <ele>169</ele>
        <time>2013-05-01T07:43:46Z</time>
      </trkpt>
      <trkpt lat="48.7954" lon="2.22292">
        <ele>169</ele>
        <time>2013-05-01T07:43:51Z</time>
      </trkpt>
      <trkpt lat="48.79546" lon="2.22296">
        <ele>168</ele>
        <time>2013-05-01T07:43:57Z</time>
      </trkpt>
      <trkpt lat="48.79543" lon="2.22309">
        <ele>168</ele>
        <time>2013-05-01T07:44:12Z</time>
      </trkpt>
      <trkpt lat="48.79549" lon="2.22315">
        <ele>168</ele>
        <time>2013-05-01T07:44:22Z</time>
      </trkpt>
      <trkpt lat="48.79557" lon="2.22311">
        <ele>168</ele>
        <time>2013-05-01T07:44:31Z</time>
      </trkpt>
      <trkpt lat="48.79565" lon="2.22305">
        <ele>168</ele>
        <time>2013-05-01T07:44:37Z</time>
      </trkpt>
      <trkpt lat="48.79572" lon="2.223">
        <ele>168</ele>
        <time>2013-05-01T07:44:44Z</time>
      </trkpt>
      <trkpt lat="48.79577" lon="2.22292">
        <ele>168</ele>
        <time>2013-05-01T07:44:52Z</time>
      </trkpt>
      <trkpt lat="48.79579" lon="2.22275">
        <ele>168</ele>
        <time>2013-05-01T07:45:04Z</time>
      </trkpt>
      <trkpt lat="48.79588" lon="2.22264">
        <ele>166</ele>
        <time>2013-05-01T07:45:17Z</time>
      </trkpt>
      <trkpt lat="48.79607" lon="2.22254">
        <ele>165</ele>
        <time>2013-05-01T07:45:37Z</time>
      </trkpt>
      <trkpt lat="48.79626" lon="2.22243">
        <ele>166</ele>
        <time>2013-05-01T07:45:54Z</time>
      </trkpt>
      <trkpt lat="48.79638" lon="2.22229">
        <ele>166</ele>
        <time>2013-05-01T07:46:01Z</time>
      </trkpt>
      <trkpt lat="48.7965" lon="2.22216">
        <ele>166</ele>
        <time>2013-05-01T07:46:05Z</time>
      </trkpt>
      <trkpt lat="48.79659" lon="2.22199">
        <ele>166</ele>
        <time>2013-05-01T07:46:11Z</time>
      </trkpt>
      <trkpt lat="48.79666" lon="2.22194">
        <ele>166</ele>
        <time>2013-05-01T07:46:14Z</time>
      </trkpt>
      <trkpt lat="48.79682" lon="2.22189">
        <ele>164</ele>
        <time>2013-05-01T07:46:24Z</time>
      </trkpt>
      <trkpt lat="48.79696" lon="2.22183">
        <ele>164</ele>
        <time>2013-05-01T07:46:35Z</time>
      </trkpt>
      <trkpt lat="48.79704" lon="2.2219">
        <ele>164</ele>
        <time>2013-05-01T07:46:41Z</time>
      </trkpt>
      <trkpt lat="48.79711" lon="2.22195">
        <ele>163</ele>
        <time>2013-05-01T07:46:59Z</time>
      </trkpt>
      <trkpt lat="48.79716" lon="2.222">
        <ele>163</ele>
        <time>2013-05-01T07:47:15Z</time>
      </trkpt>
      <trkpt lat="48.79722" lon="2.22192">
        <ele>163</ele>
        <time>2013-05-01T07:47:32Z</time>
      </trkpt>
      <trkpt lat="48.79723" lon="2.22181">
        <ele>163</ele>
        <time>2013-05-01T07:47:40Z</time>
      </trkpt>
      <trkpt lat="48.7972" lon="2.22197">
        <ele>163</ele>
        <time>2013-05-01T07:47:54Z</time>
      </trkpt>
      <trkpt lat="48.79719" lon="2.22208">
        <ele>163</ele>
        <time>2013-05-01T07:48:00Z</time>
      </trkpt>
      <trkpt lat="48.79717" lon="2.22225">
        <ele>163</ele>
        <time>2013-05-01T07:48:13Z</time>
      </trkpt>
      <trkpt lat="48.79719" lon="2.22248">
        <ele>163</ele>
        <time>2013-05-01T07:48:25Z</time>
      </trkpt>
      <trkpt lat="48.7972" lon="2.22271">
        <ele>161</ele>
        <time>2013-05-01T07:48:34Z</time>
      </trkpt>
      <trkpt lat="48.79721" lon="2.22288">
        <ele>160</ele>
        <time>2013-05-01T07:48:43Z</time>
      </trkpt>
      <trkpt lat="48.79725" lon="2.22303">
        <ele>160</ele>
        <time>2013-05-01T07:48:52Z</time>
      </trkpt>
      <trkpt lat="48.79731" lon="2.22318">
        <ele>158</ele>
        <time>2013-05-01T07:48:58Z</time>
      </trkpt>
      <trkpt lat="48.79736" lon="2.22326">
        <ele>158</ele>
        <time>2013-05-01T07:49:03Z</time>
      </trkpt>
      <trkpt lat="48.79739" lon="2.22337">
        <ele>154</ele>
        <time>2013-05-01T07:49:05Z</time>
      </trkpt>
      <trkpt lat="48.79745" lon="2.22344">
        <ele>154</ele>
        <time>2013-05-01T07:49:09Z</time>
      </trkpt>
      <trkpt lat="48.79747" lon="2.2236">
        <ele>153</ele>
        <time>2013-05-01T07:49:26Z</time>
      </trkpt>
      <trkpt lat="48.7975" lon="2.22384">
        <ele>152</ele>
        <time>2013-05-01T07:49:36Z</time>
      </trkpt>
      <trkpt lat="48.7975" lon="2.22395">
        <ele>151</ele>
        <time>2013-05-01T07:49:41Z</time>
      </trkpt>
      <trkpt lat="48.79753" lon="2.22416">
        <ele>148</ele>
        <time>2013-05-01T07:49:57Z</time>
      </trkpt>
      <trkpt lat="48.79755" lon="2.22434">
        <ele>148</ele>
        <time>2013-05-01T07:50:08Z</time>
      </trkpt>
      <trkpt lat="48.79752" lon="2.22451">
        <ele>147</ele>
        <time>2013-05-01T07:50:22Z</time>
      </trkpt>
      <trkpt lat="48.79754" lon="2.22464">
        <ele>146</ele>
        <time>2013-05-01T07:50:28Z</time>
      </trkpt>
      <trkpt lat="48.79746" lon="2.22466">
        <ele>144</ele>
        <time>2013-05-01T07:51:25Z</time>
      </trkpt>
      <trkpt lat="48.79741" lon="2.22475">
        <ele>143</ele>
        <time>2013-05-01T07:52:13Z</time>
      </trkpt>
      <trkpt lat="48.79734" lon="2.22478">
        <ele>143</ele>
        <time>2013-05-01T07:52:20Z</time>
      </trkpt>
      <trkpt lat="48.79724" lon="2.22486">
        <ele>143</ele>
        <time>2013-05-01T07:52:35Z</time>
      </trkpt>
      <trkpt lat="48.79715" lon="2.22487">
        <ele>143</ele>
        <time>2013-05-01T07:52:43Z</time>
      </trkpt>
      <trkpt lat="48.79703" lon="2.22488">
        <ele>144</ele>
        <time>2013-05-01T07:52:49Z</time>
      </trkpt>
      <trkpt lat="48.79696" lon="2.22493">
        <ele>144</ele>
        <time>2013-05-01T07:52:55Z</time>
      </trkpt>
      <trkpt lat="48.79688" lon="2.22499">
        <ele>143</ele>
        <time>2013-05-01T07:53:01Z</time>
      </trkpt>
      <trkpt lat="48.7968" lon="2.22513">
        <ele>141</ele>
        <time>2013-05-01T07:53:10Z</time>
      </trkpt>
      <trkpt lat="48.79675" lon="2.22527">
        <ele>140</ele>
        <time>2013-05-01T07:53:17Z</time>
      </trkpt>
      <trkpt lat="48.79669" lon="2.22543">
        <ele>139</ele>
        <time>2013-05-01T07:53:24Z</time>
      </trkpt>
      <trkpt lat="48.79663" lon="2.22556">
        <ele>141</ele>
        <time>2013-05-01T07:53:34Z</time>
      </trkpt>
      <trkpt lat="48.7966" lon="2.2257">
        <ele>140</ele>
        <time>2013-05-01T07:53:40Z</time>
      </trkpt>
      <trkpt lat="48.7966" lon="2.22583">
        <ele>139</ele>
        <time>2013-05-01T07:53:44Z</time>
      </trkpt>
      <trkpt lat="48.79657" lon="2.22596">
        <ele>138</ele>
        <time>2013-05-01T07:53:49Z</time>
      </trkpt>
      <trkpt lat="48.79656" lon="2.22608">
        <ele>138</ele>
        <time>2013-05-01T07:53:55Z</time>
      </trkpt>
      <trkpt lat="48.79653" lon="2.22618">
        <ele>137</ele>
        <time>2013-05-01T07:54:00Z</time>
      </trkpt>
      <trkpt lat="48.7965" lon="2.22633">
        <ele>137</ele>
        <time>2013-05-01T07:54:08Z</time>
      </trkpt>
      <trkpt lat="48.79647" lon="2.22647">
        <ele>136</ele>
        <time>2013-05-01T07:54:13Z</time>
      </trkpt>
      <trkpt lat="48.79643" lon="2.22663">
        <ele>136</ele>
        <time>2013-05-01T07:54:23Z</time>
      </trkpt>
      <trkpt lat="48.79644" lon="2.22675">
        <ele>134</ele>
        <time>2013-05-01T07:54:39Z</time>
      </trkpt>
      <trkpt lat="48.79651" lon="2.22672">
        <ele>133</ele>
        <time>2013-05-01T07:54:51Z</time>
      </trkpt>
      <trkpt lat="48.79652" lon="2.22664">
        <ele>135</ele>
        <time>2013-05-01T07:55:44Z</time>
      </trkpt>
      <trkpt lat="48.79658" lon="2.22662">
        <ele>134</ele>
        <time>2013-05-01T07:56:18Z</time>
      </trkpt>
      <trkpt lat="48.79657" lon="2.22674">
        <ele>133</ele>
        <time>2013-05-01T07:56:26Z</time>
      </trkpt>
      <trkpt lat="48.79656" lon="2.22688">
        <ele>133</ele>
        <time>2013-05-01T07:56:33Z</time>
      </trkpt>
      <trkpt lat="48.79654" lon="2.22697">
        <ele>134</ele>
        <time>2013-05-01T07:57:03Z</time>
      </trkpt>
      <trkpt lat="48.7965" lon="2.22701">
        <ele>134</ele>
        <time>2013-05-01T07:57:44Z</time>
      </trkpt>
      <trkpt lat="48.79656" lon="2.22706">
        <ele>134</ele>
        <time>2013-05-01T07:58:14Z</time>
      </trkpt>
      <trkpt lat="48.79652" lon="2.22715">
        <ele>134</ele>
        <time>2013-05-01T07:59:14Z</time>
      </trkpt>
      <trkpt lat="48.79655" lon="2.22723">
        <ele>133</ele>
        <time>2013-05-01T07:59:22Z</time>
      </trkpt>
      <trkpt lat="48.79659" lon="2.22729">
        <ele>133</ele>
        <time>2013-05-01T07:59:29Z</time>
      </trkpt>
      <trkpt lat="48.79662" lon="2.22735">
        <ele>133</ele>
        <time>2013-05-01T07:59:37Z</time>
      </trkpt>
      <trkpt lat="48.79654" lon="2.22743">
        <ele>133</ele>
        <time>2013-05-01T07:59:48Z</time>
      </trkpt>
      <trkpt lat="48.79647" lon="2.2275">
        <ele>133</ele>
        <time>2013-05-01T07:59:52Z</time>
      </trkpt>
      <trkpt lat="48.79645" lon="2.22761">
        <ele>133</ele>
        <time>2013-05-01T07:59:57Z</time>
      </trkpt>
      <trkpt lat="48.7964" lon="2.2277">
        <ele>134</ele>
        <time>2013-05-01T08:00:03Z</time>
      </trkpt>
      <trkpt lat="48.79635" lon="2.22781">
        <ele>134</ele>
        <time>2013-05-01T08:00:09Z</time>
      </trkpt>
      <trkpt lat="48.79633" lon="2.22791">
        <ele>134</ele>
        <time>2013-05-01T08:00:14Z</time>
      </trkpt>
      <trkpt lat="48.7963" lon="2.22804">
        <ele>134</ele>
        <time>2013-05-01T08:00:22Z</time>
      </trkpt>
      <trkpt lat="48.79628" lon="2.22814">
        <ele>134</ele>
        <time>2013-05-01T08:00:29Z</time>
      </trkpt>
      <trkpt lat="48.79623" lon="2.22824">
        <ele>135</ele>
        <time>2013-05-01T08:00:37Z</time>
      </trkpt>
      <trkpt lat="48.79618" lon="2.22838">
        <ele>135</ele>
        <time>2013-05-01T08:00:46Z</time>
      </trkpt>
      <trkpt lat="48.79616" lon="2.22855">
        <ele>136</ele>
        <time>2013-05-01T08:00:58Z</time>
      </trkpt>
      <trkpt lat="48.79614" lon="2.22877">
        <ele>136</ele>
        <time>2013-05-01T08:01:11Z</time>
      </trkpt>
      <trkpt lat="48.79614" lon="2.22899">
        <ele>136</ele>
        <time>2013-05-01T08:01:18Z</time>
      </trkpt>
      <trkpt lat="48.79612" lon="2.22916">
        <ele>136</ele>
        <time>2013-05-01T08:01:22Z</time>
      </trkpt>
      <trkpt lat="48.79612" lon="2.2293">
        <ele>135</ele>
        <time>2013-05-01T08:01:27Z</time>
      </trkpt>
      <trkpt lat="48.79612" lon="2.22939">
        <ele>135</ele>
        <time>2013-05-01T08:01:31Z</time>
      </trkpt>
      <trkpt lat="48.79611" lon="2.22952">
        <ele>135</ele>
        <time>2013-05-01T08:01:36Z</time>
      </trkpt>
      <trkpt lat="48.79606" lon="2.22966">
        <ele>135</ele>
        <time>2013-05-01T08:01:43Z</time>
      </trkpt>
      <trkpt lat="48.79601" lon="2.22975">
        <ele>135</ele>
        <time>2013-05-01T08:01:52Z</time>
      </trkpt>
      <trkpt lat="48.79593" lon="2.2299">
        <ele>136</ele>
        <time>2013-05-01T08:02:02Z</time>
      </trkpt>
      <trkpt lat="48.79593" lon="2.23002">
        <ele>136</ele>
        <time>2013-05-01T08:02:09Z</time>
      </trkpt>
      <trkpt lat="48.79594" lon="2.23015">
        <ele>135</ele>
        <time>2013-05-01T08:02:20Z</time>
      </trkpt>
      <trkpt lat="48.7959" lon="2.23026">
        <ele>134</ele>
        <time>2013-05-01T08:02:27Z</time>
      </trkpt>
      <trkpt lat="48.79585" lon="2.23035">
        <ele>134</ele>
        <time>2013-05-01T08:02:31Z</time>
      </trkpt>
      <trkpt lat="48.79584" lon="2.23049">
        <ele>133</ele>
        <time>2013-05-01T08:02:37Z</time>
      </trkpt>
      <trkpt lat="48.79586" lon="2.23061">
        <ele>133</ele>
        <time>2013-05-01T08:02:44Z</time>
      </trkpt>
      <trkpt lat="48.79582" lon="2.23073">
        <ele>136</ele>
        <time>2013-05-01T08:02:49Z</time>
      </trkpt>
      <trkpt lat="48.79578" lon="2.23082">
        <ele>136</ele>
        <time>2013-05-01T08:02:56Z</time>
      </trkpt>
      <trkpt lat="48.79575" lon="2.23092">
        <ele>133</ele>
        <time>2013-05-01T08:03:01Z</time>
      </trkpt>
      <trkpt lat="48.79572" lon="2.23104">
        <ele>131</ele>
        <time>2013-05-01T08:03:06Z</time>
      </trkpt>
      <trkpt lat="48.79569" lon="2.23116">
        <ele>130</ele>
        <time>2013-05-01T08:03:12Z</time>
      </trkpt>
      <trkpt lat="48.79567" lon="2.23124">
        <ele>130</ele>
        <time>2013-05-01T08:03:15Z</time>
      </trkpt>
      <trkpt lat="48.79561" lon="2.23141">
        <ele>129</ele>
        <time>2013-05-01T08:03:20Z</time>
      </trkpt>
      <trkpt lat="48.79557" lon="2.23153">
        <ele>128</ele>
        <time>2013-05-01T08:03:25Z</time>
      </trkpt>
      <trkpt lat="48.79555" lon="2.23165">
        <ele>128</ele>
        <time>2013-05-01T08:03:30Z</time>
      </trkpt>
      <trkpt lat="48.79554" lon="2.23174">
        <ele>124</ele>
        <time>2013-05-01T08:03:34Z</time>
      </trkpt>
      <trkpt lat="48.79552" lon="2.23184">
        <ele>124</ele>
        <time>2013-05-01T08:03:38Z</time>
      </trkpt>
      <trkpt lat="48.7955" lon="2.23194">
        <ele>123</ele>
        <time>2013-05-01T08:03:44Z</time>
      </trkpt>
      <trkpt lat="48.79547" lon="2.23203">
        <ele>123</ele>
        <time>2013-05-01T08:03:49Z</time>
      </trkpt>
      <trkpt lat="48.79546" lon="2.23213">
        <ele>123</ele>
        <time>2013-05-01T08:03:54Z</time>
      </trkpt>
      <trkpt lat="48.79541" lon="2.23226">
        <ele>123</ele>
        <time>2013-05-01T08:03:58Z</time>
      </trkpt>
      <trkpt lat="48.79538" lon="2.23232">
        <ele>123</ele>
        <time>2013-05-01T08:04:01Z</time>
      </trkpt>
      <trkpt lat="48.79535" lon="2.2324">
        <ele>122</ele>
        <time>2013-05-01T08:04:06Z</time>
      </trkpt>
      <trkpt lat="48.79541" lon="2.23233">
        <ele>123</ele>
        <time>2013-05-01T08:04:21Z</time>
      </trkpt>
      <trkpt lat="48.7954" lon="2.23245">
        <ele>122</ele>
        <time>2013-05-01T08:04:49Z</time>
      </trkpt>
      <trkpt lat="48.79537" lon="2.23253">
        <ele>121</ele>
        <time>2013-05-01T08:04:53Z</time>
      </trkpt>
      <trkpt lat="48.79535" lon="2.23262">
        <ele>121</ele>
        <time>2013-05-01T08:04:56Z</time>
      </trkpt>
      <trkpt lat="48.79533" lon="2.23276">
        <ele>120</ele>
        <time>2013-05-01T08:05:02Z</time>
      </trkpt>
      <trkpt lat="48.79533" lon="2.23285">
        <ele>120</ele>
        <time>2013-05-01T08:05:08Z</time>
      </trkpt>
      <trkpt lat="48.7953" lon="2.23297">
        <ele>120</ele>
        <time>2013-05-01T08:05:18Z</time>
      </trkpt>
      <trkpt lat="48.79529" lon="2.23309">
        <ele>120</ele>
        <time>2013-05-01T08:05:22Z</time>
      </trkpt>
      <trkpt lat="48.79528" lon="2.23323">
        <ele>120</ele>
        <time>2013-05-01T08:05:26Z</time>
      </trkpt>
      <trkpt lat="48.79525" lon="2.23332">
        <ele>120</ele>
        <time>2013-05-01T08:05:31Z</time>
      </trkpt>
      <trkpt lat="48.79524" lon="2.2334">
        <ele>118</ele>
        <time>2013-05-01T08:05:34Z</time>
      </trkpt>
      <trkpt lat="48.7952" lon="2.2335">
        <ele>118</ele>
        <time>2013-05-01T08:05:39Z</time>
      </trkpt>
      <trkpt lat="48.7952" lon="2.2336">
        <ele>118</ele>
        <time>2013-05-01T08:05:45Z</time>
      </trkpt>
      <trkpt lat="48.79518" lon="2.23371">
        <ele>118</ele>
        <time>2013-05-01T08:05:52Z</time>
      </trkpt>
      <trkpt lat="48.79516" lon="2.23381">
        <ele>118</ele>
        <time>2013-05-01T08:05:59Z</time>
      </trkpt>
      <trkpt lat="48.79514" lon="2.23389">
        <ele>118</ele>
        <time>2013-05-01T08:06:05Z</time>
      </trkpt>
      <trkpt lat="48.79513" lon="2.23401">
        <ele>118</ele>
        <time>2013-05-01T08:06:11Z</time>
      </trkpt>
      <trkpt lat="48.79509" lon="2.23411">
        <ele>118</ele>
        <time>2013-05-01T08:06:20Z</time>
      </trkpt>
      <trkpt lat="48.79509" lon="2.23422">
        <ele>118</ele>
        <time>2013-05-01T08:06:49Z</time>
      </trkpt>
      <trkpt lat="48.79511" lon="2.23435">
        <ele>118</ele>
        <time>2013-05-01T08:07:03Z</time>
      </trkpt>
      <trkpt lat="48.7951" lon="2.23446">
        <ele>118</ele>
        <time>2013-05-01T08:07:13Z</time>
      </trkpt>
      <trkpt lat="48.79521" lon="2.2345">
        <ele>118</ele>
        <time>2013-05-01T08:07:30Z</time>
      </trkpt>
      <trkpt lat="48.7951" lon="2.23442">
        <ele>118</ele>
        <time>2013-05-01T08:08:53Z</time>
      </trkpt>
      <trkpt lat="48.79501" lon="2.23452">
        <ele>119</ele>
        <time>2013-05-01T08:09:21Z</time>
      </trkpt>
      <trkpt lat="48.79505" lon="2.23475">
        <ele>120</ele>
        <time>2013-05-01T08:09:36Z</time>
      </trkpt>
      <trkpt lat="48.79498" lon="2.23497">
        <ele>124</ele>
        <time>2013-05-01T08:09:42Z</time>
      </trkpt>
      <trkpt lat="48.79491" lon="2.23511">
        <ele>126</ele>
        <time>2013-05-01T08:09:53Z</time>
      </trkpt>
      <trkpt lat="48.79487" lon="2.23528">
        <ele>127</ele>
        <time>2013-05-01T08:10:07Z</time>
      </trkpt>
      <trkpt lat="48.79485" lon="2.23545">
        <ele>127</ele>
        <time>2013-05-01T08:10:14Z</time>
      </trkpt>
      <trkpt lat="48.79483" lon="2.23562">
        <ele>127</ele>
        <time>2013-05-01T08:10:23Z</time>
      </trkpt>
      <trkpt lat="48.79482" lon="2.23578">
        <ele>127</ele>
        <time>2013-05-01T08:10:31Z</time>
      </trkpt>
      <trkpt lat="48.79481" lon="2.23589">
        <ele>127</ele>
        <time>2013-05-01T08:10:38Z</time>
      </trkpt>
      <trkpt lat="48.79478" lon="2.23599">
        <ele>127</ele>
        <time>2013-05-01T08:10:48Z</time>
      </trkpt>
      <trkpt lat="48.79485" lon="2.23612">
        <ele>127</ele>
        <time>2013-05-01T08:11:20Z</time>
      </trkpt>
      <trkpt lat="48.795" lon="2.23616">
        <ele>121</ele>
        <time>2013-05-01T08:11:32Z</time>
      </trkpt>
      <trkpt lat="48.79515" lon="2.23619">
        <ele>120</ele>
        <time>2013-05-01T08:11:40Z</time>
      </trkpt>
      <trkpt lat="48.7953" lon="2.23628">
        <ele>119</ele>
        <time>2013-05-01T08:11:47Z</time>
      </trkpt>
      <trkpt lat="48.79544" lon="2.23635">
        <ele>118</ele>
        <time>2013-05-01T08:11:54Z</time>
      </trkpt>
      <trkpt lat="48.79555" lon="2.23619">
        <ele>117</ele>
        <time>2013-05-01T08:12:02Z</time>
      </trkpt>
      <trkpt lat="48.7955" lon="2.23597">
        <ele>118</ele>
        <time>2013-05-01T08:12:12Z</time>
      </trkpt>
      <trkpt lat="48.79544" lon="2.23581">
        <ele>119</ele>
        <time>2013-05-01T08:12:20Z</time>
      </trkpt>
      <trkpt lat="48.79546" lon="2.23565">
        <ele>118</ele>
        <time>2013-05-01T08:12:27Z</time>
      </trkpt>
      <trkpt lat="48.79549" lon="2.23549">
        <ele>118</ele>
        <time>2013-05-01T08:12:34Z</time>
      </trkpt>
      <trkpt lat="48.79556" lon="2.23534">
        <ele>118</ele>
        <time>2013-05-01T08:12:45Z</time>
      </trkpt>
      <trkpt lat="48.79553" lon="2.23517">
        <ele>118</ele>
        <time>2013-05-01T08:12:51Z</time>
      </trkpt>
      <trkpt lat="48.79548" lon="2.235">
        <ele>117</ele>
        <time>2013-05-01T08:12:57Z</time>
      </trkpt>
      <trkpt lat="48.79544" lon="2.23483">
        <ele>117</ele>
        <time>2013-05-01T08:13:00Z</time>
      </trkpt>
      <trkpt lat="48.79542" lon="2.23461">
        <ele>117</ele>
        <time>2013-05-01T08:13:09Z</time>
      </trkpt>
      <trkpt lat="48.79535" lon="2.23448">
        <ele>117</ele>
        <time>2013-05-01T08:13:47Z</time>
      </trkpt>
      <trkpt lat="48.79543" lon="2.23453">
        <ele>117</ele>
        <time>2013-05-01T08:14:22Z</time>
      </trkpt>
      <trkpt lat="48.79553" lon="2.2345">
        <ele>117</ele>
        <time>2013-05-01T08:14:29Z</time>
      </trkpt>
      <trkpt lat="48.79563" lon="2.23442">
        <ele>116</ele>
        <time>2013-05-01T08:14:37Z</time>
      </trkpt>
      <trkpt lat="48.79552" lon="2.23454">
        <ele>117</ele>
        <time>2013-05-01T08:14:52Z</time>
      </trkpt>
      <trkpt lat="48.79557" lon="2.23437">
        <ele>116</ele>
        <time>2013-05-01T08:15:21Z</time>
      </trkpt>
      <trkpt lat="48.79568" lon="2.23433">
        <ele>115</ele>
        <time>2013-05-01T08:15:30Z</time>
      </trkpt>
      <trkpt lat="48.79578" lon="2.23428">
        <ele>115</ele>
        <time>2013-05-01T08:15:42Z</time>
      </trkpt>
      <trkpt lat="48.79589" lon="2.23413">
        <ele>113</ele>
        <time>2013-05-01T08:15:57Z</time>
      </trkpt>
      <trkpt lat="48.79599" lon="2.23406">
        <ele>113</ele>
        <time>2013-05-01T08:16:06Z</time>
      </trkpt>
      <trkpt lat="48.79615" lon="2.23392">
        <ele>114</ele>
        <time>2013-05-01T08:16:21Z</time>
      </trkpt>
      <trkpt lat="48.79626" lon="2.23371">
        <ele>114</ele>
        <time>2013-05-01T08:16:34Z</time>
      </trkpt>
      <trkpt lat="48.79631" lon="2.23349">
        <ele>115</ele>
        <time>2013-05-01T08:16:45Z</time>
      </trkpt>
      <trkpt lat="48.79643" lon="2.23329">
        <ele>117</ele>
        <time>2013-05-01T08:16:55Z</time>
      </trkpt>
      <trkpt lat="48.79657" lon="2.23322">
        <ele>117</ele>
        <time>2013-05-01T08:17:05Z</time>
      </trkpt>
      <trkpt lat="48.79668" lon="2.23307">
        <ele>116</ele>
        <time>2013-05-01T08:17:13Z</time>
      </trkpt>
      <trkpt lat="48.79676" lon="2.23292">
        <ele>117</ele>
        <time>2013-05-01T08:17:20Z</time>
      </trkpt>
      <trkpt lat="48.79688" lon="2.23281">
        <ele>117</ele>
        <time>2013-05-01T08:17:29Z</time>
      </trkpt>
      <trkpt lat="48.79702" lon="2.2327">
        <ele>117</ele>
        <time>2013-05-01T08:17:39Z</time>
      </trkpt>
      <trkpt lat="48.79712" lon="2.23262">
        <ele>117</ele>
        <time>2013-05-01T08:17:46Z</time>
      </trkpt>
      <trkpt lat="48.79723" lon="2.23249">
        <ele>120</ele>
        <time>2013-05-01T08:17:56Z</time>
      </trkpt>
      <trkpt lat="48.7973" lon="2.23236">
        <ele>120</ele>
        <time>2013-05-01T08:18:07Z</time>
      </trkpt>
      <trkpt lat="48.79736" lon="2.23253">
        <ele>117</ele>
        <time>2013-05-01T08:18:35Z</time>
      </trkpt>
      <trkpt lat="48.79747" lon="2.23254">
        <ele>117</ele>
        <time>2013-05-01T08:20:27Z</time>
      </trkpt>
      <trkpt lat="48.79762" lon="2.23237">
        <ele>118</ele>
        <time>2013-05-01T08:20:36Z</time>
      </trkpt>
      <trkpt lat="48.79758" lon="2.2322">
        <ele>119</ele>
        <time>2013-05-01T08:20:51Z</time>
      </trkpt>
      <trkpt lat="48.79758" lon="2.23196">
        <ele>120</ele>
        <time>2013-05-01T08:21:06Z</time>
      </trkpt>
      <trkpt lat="48.7976" lon="2.23171">
        <ele>122</ele>
        <time>2013-05-01T08:21:16Z</time>
      </trkpt>
      <trkpt lat="48.79763" lon="2.23156">
        <ele>124</ele>
        <time>2013-05-01T08:21:21Z</time>
      </trkpt>
      <trkpt lat="48.79763" lon="2.23136">
        <ele>125</ele>
        <time>2013-05-01T08:21:26Z</time>
      </trkpt>
      <trkpt lat="48.79768" lon="2.23112">
        <ele>126</ele>
        <time>2013-05-01T08:21:36Z</time>
      </trkpt>
      <trkpt lat="48.79773" lon="2.23091">
        <ele>126</ele>
        <time>2013-05-01T08:21:45Z</time>
      </trkpt>
      <trkpt lat="48.79775" lon="2.23074">
        <ele>130</ele>
        <time>2013-05-01T08:21:51Z</time>
      </trkpt>
      <trkpt lat="48.79779" lon="2.23058">
        <ele>131</ele>
        <time>2013-05-01T08:22:01Z</time>
      </trkpt>
      <trkpt lat="48.79776" lon="2.23042">
        <ele>131</ele>
        <time>2013-05-01T08:22:07Z</time>
      </trkpt>
      <trkpt lat="48.79774" lon="2.23025">
        <ele>132</ele>
        <time>2013-05-01T08:22:14Z</time>
      </trkpt>
      <trkpt lat="48.79773" lon="2.23013">
        <ele>132</ele>
        <time>2013-05-01T08:22:21Z</time>
      </trkpt>
      <trkpt lat="48.79771" lon="2.23001">
        <ele>132</ele>
        <time>2013-05-01T08:22:26Z</time>
      </trkpt>
      <trkpt lat="48.79767" lon="2.22992">
        <ele>135</ele>
        <time>2013-05-01T08:22:39Z</time>
      </trkpt>
      <trkpt lat="48.79767" lon="2.22974">
        <ele>136</ele>
        <time>2013-05-01T08:22:50Z</time>
      </trkpt>
      <trkpt lat="48.79763" lon="2.22959">
        <ele>136</ele>
        <time>2013-05-01T08:23:00Z</time>
      </trkpt>
      <trkpt lat="48.79758" lon="2.22939">
        <ele>136</ele>
        <time>2013-05-01T08:23:13Z</time>
      </trkpt>
      <trkpt lat="48.79755" lon="2.22928">
        <ele>134</ele>
        <time>2013-05-01T08:23:21Z</time>
      </trkpt>
      <trkpt lat="48.79754" lon="2.2291">
        <ele>134</ele>
        <time>2013-05-01T08:23:31Z</time>
      </trkpt>
      <trkpt lat="48.7975" lon="2.22888">
        <ele>131</ele>
        <time>2013-05-01T08:23:41Z</time>
      </trkpt>
      <trkpt lat="48.79747" lon="2.22869">
        <ele>131</ele>
        <time>2013-05-01T08:23:51Z</time>
      </trkpt>
      <trkpt lat="48.79746" lon="2.22854">
        <ele>132</ele>
        <time>2013-05-01T08:23:58Z</time>
      </trkpt>
      <trkpt lat="48.79744" lon="2.22836">
        <ele>132</ele>
        <time>2013-05-01T08:24:06Z</time>
      </trkpt>
      <trkpt lat="48.79744" lon="2.22823">
        <ele>133</ele>
        <time>2013-05-01T08:24:12Z</time>
      </trkpt>
      <trkpt lat="48.79744" lon="2.22808">
        <ele>133</ele>
        <time>2013-05-01T08:24:18Z</time>
      </trkpt>
      <trkpt lat="48.79746" lon="2.22796">
        <ele>133</ele>
        <time>2013-05-01T08:24:23Z</time>
      </trkpt>
      <trkpt lat="48.79747" lon="2.22786">
        <ele>133</ele>
        <time>2013-05-01T08:24:28Z</time>
      </trkpt>
      <trkpt lat="48.79752" lon="2.22778">
        <ele>140</ele>
        <time>2013-05-01T08:24:37Z</time>
      </trkpt>
      <trkpt lat="48.79755" lon="2.22769">
        <ele>139</ele>
        <time>2013-05-01T08:24:52Z</time>
      </trkpt>
      <trkpt lat="48.79762" lon="2.2277">
        <ele>140</ele>
        <time>2013-05-01T08:25:27Z</time>
      </trkpt>
      <trkpt lat="48.7977" lon="2.22775">
        <ele>141</ele>
        <time>2013-05-01T08:25:37Z</time>
      </trkpt>
      <trkpt lat="48.79781" lon="2.22778">
        <ele>142</ele>
        <time>2013-05-01T08:25:45Z</time>
      </trkpt>
      <trkpt lat="48.79796" lon="2.22785">
        <ele>144</ele>
        <time>2013-05-01T08:25:57Z</time>
      </trkpt>
      <trkpt lat="48.79807" lon="2.22783">
        <ele>145</ele>
        <time>2013-05-01T08:26:21Z</time>
      </trkpt>
      <trkpt lat="48.79818" lon="2.2279">
        <ele>145</ele>
        <time>2013-05-01T08:26:30Z</time>
      </trkpt>
      <trkpt lat="48.7983" lon="2.2279">
        <ele>146</ele>
        <time>2013-05-01T08:26:52Z</time>
      </trkpt>
      <trkpt lat="48.79841" lon="2.2279">
        <ele>158</ele>
        <time>2013-05-01T08:27:12Z</time>
      </trkpt>
      <trkpt lat="48.7985" lon="2.22793">
        <ele>159</ele>
        <time>2013-05-01T08:27:17Z</time>
      </trkpt>
      <trkpt lat="48.79858" lon="2.22794">
        <ele>160</ele>
        <time>2013-05-01T08:27:20Z</time>
      </trkpt>
      <trkpt lat="48.79866" lon="2.22799">
        <ele>160</ele>
        <time>2013-05-01T08:27:30Z</time>
      </trkpt>
      <trkpt lat="48.79875" lon="2.22802">
        <ele>161</ele>
        <time>2013-05-01T08:27:38Z</time>
      </trkpt>
      <trkpt lat="48.79883" lon="2.22802">
        <ele>162</ele>
        <time>2013-05-01T08:27:49Z</time>
      </trkpt>
      <trkpt lat="48.79891" lon="2.22808">
        <ele>164</ele>
        <time>2013-05-01T08:28:01Z</time>
      </trkpt>
      <trkpt lat="48.79899" lon="2.22803">
        <ele>164</ele>
        <time>2013-05-01T08:28:15Z</time>
      </trkpt>
      <trkpt lat="48.79896" lon="2.22813">
        <ele>164</ele>
        <time>2013-05-01T08:29:56Z</time>
      </trkpt>
      <trkpt lat="48.79907" lon="2.22818">
        <ele>166</ele>
        <time>2013-05-01T08:30:51Z</time>
      </trkpt>
      <trkpt lat="48.79916" lon="2.22814">
        <ele>166</ele>
        <time>2013-05-01T08:31:05Z</time>
      </trkpt>
      <trkpt lat="48.79926" lon="2.22819">
        <ele>172</ele>
        <time>2013-05-01T08:32:32Z</time>
      </trkpt>
      <trkpt lat="48.79926" lon="2.22796">
        <ele>172</ele>
        <time>2013-05-01T08:32:54Z</time>
      </trkpt>
      <trkpt lat="48.79931" lon="2.22775">
        <ele>173</ele>
        <time>2013-05-01T08:33:02Z</time>
      </trkpt>
      <trkpt lat="48.79937" lon="2.22767">
        <ele>173</ele>
        <time>2013-05-01T08:33:09Z</time>
      </trkpt>
      <trkpt lat="48.79947" lon="2.22757">
        <ele>173</ele>
        <time>2013-05-01T08:33:20Z</time>
      </trkpt>
      <trkpt lat="48.79948" lon="2.22739">
        <ele>174</ele>
        <time>2013-05-01T08:33:33Z</time>
      </trkpt>
      <trkpt lat="48.79948" lon="2.22726">
        <ele>174</ele>
        <time>2013-05-01T08:33:39Z</time>
      </trkpt>
      <trkpt lat="48.7995" lon="2.22704">
        <ele>174</ele>
        <time>2013-05-01T08:33:52Z</time>
      </trkpt>
      <trkpt lat="48.79959" lon="2.22682">
        <ele>174</ele>
        <time>2013-05-01T08:34:07Z</time>
      </trkpt>
      <trkpt lat="48.7996" lon="2.22659">
        <ele>174</ele>
        <time>2013-05-01T08:34:18Z</time>
      </trkpt>
      <trkpt lat="48.79966" lon="2.22639">
        <ele>175</ele>
        <time>2013-05-01T08:34:28Z</time>
      </trkpt>
      <trkpt lat="48.79964" lon="2.22623">
        <ele>175</ele>
        <time>2013-05-01T08:34:38Z</time>
      </trkpt>
      <trkpt lat="48.7996" lon="2.226">
        <ele>175</ele>
        <time>2013-05-01T08:34:48Z</time>
      </trkpt>
      <trkpt lat="48.79961" lon="2.22572">
        <ele>176</ele>
        <time>2013-05-01T08:34:56Z</time>
      </trkpt>
      <trkpt lat="48.79964" lon="2.22555">
        <ele>176</ele>
        <time>2013-05-01T08:35:03Z</time>
      </trkpt>
      <trkpt lat="48.79967" lon="2.22526">
        <ele>177</ele>
        <time>2013-05-01T08:35:16Z</time>
      </trkpt>
      <trkpt lat="48.79966" lon="2.22506">
        <ele>177</ele>
        <time>2013-05-01T08:35:27Z</time>
      </trkpt>
      <trkpt lat="48.79966" lon="2.22481">
        <ele>178</ele>
        <time>2013-05-01T08:35:38Z</time>
      </trkpt>
      <trkpt lat="48.79964" lon="2.22457">
        <ele>178</ele>
        <time>2013-05-01T08:35:48Z</time>
      </trkpt>
      <trkpt lat="48.79964" lon="2.22439">
        <ele>179</ele>
        <time>2013-05-01T08:35:55Z</time>
      </trkpt>
      <trkpt lat="48.79966" lon="2.22423">
        <ele>179</ele>
        <time>2013-05-01T08:36:01Z</time>
      </trkpt>
      <trkpt lat="48.79968" lon="2.22407">
        <ele>179</ele>
        <time>2013-05-01T08:36:10Z</time>
      </trkpt>
      <trkpt lat="48.79968" lon="2.22389">
        <ele>179</ele>
        <time>2013-05-01T08:36:17Z</time>
      </trkpt>
      <trkpt lat="48.79966" lon="2.22367">
        <ele>178</ele>
        <time>2013-05-01T08:36:29Z</time>
      </trkpt>
      <trkpt lat="48.79968" lon="2.22342">
        <ele>178</ele>
        <time>2013-05-01T08:36:41Z</time>
      </trkpt>
      <trkpt lat="48.79973" lon="2.22319">
        <ele>177</ele>
        <time>2013-05-01T08:36:52Z</time>
      </trkpt>
      <trkpt lat="48.79974" lon="2.22294">
        <ele>177</ele>
        <time>2013-05-01T08:37:04Z</time>
      </trkpt>
      <trkpt lat="48.79973" lon="2.22272">
        <ele>177</ele>
        <time>2013-05-01T08:37:13Z</time>
      </trkpt>
      <trkpt lat="48.79976" lon="2.22247">
        <ele>177</ele>
        <time>2013-05-01T08:37:36Z</time>
      </trkpt>
      <trkpt lat="48.79985" lon="2.22235">
        <ele>178</ele>
        <time>2013-05-01T08:37:49Z</time>
      </trkpt>
      <trkpt lat="48.80001" lon="2.22224">
        <ele>179</ele>
        <time>2013-05-01T08:37:59Z</time>
      </trkpt>
      <trkpt lat="48.80015" lon="2.22212">
        <ele>179</ele>
        <time>2013-05-01T08:38:09Z</time>
      </trkpt>
      <trkpt lat="48.8003" lon="2.22201">
        <ele>180</ele>
        <time>2013-05-01T08:38:18Z</time>
      </trkpt>
      <trkpt lat="48.80042" lon="2.22187">
        <ele>180</ele>
        <time>2013-05-01T08:38:29Z</time>
      </trkpt>
      <trkpt lat="48.80055" lon="2.22176">
        <ele>181</ele>
        <time>2013-05-01T08:38:37Z</time>
      </trkpt>
      <trkpt lat="48.80066" lon="2.22161">
        <ele>182</ele>
        <time>2013-05-01T08:38:50Z</time>
      </trkpt>
      <trkpt lat="48.80075" lon="2.2215">
        <ele>183</ele>
        <time>2013-05-01T08:38:59Z</time>
      </trkpt>
      <trkpt lat="48.80093" lon="2.22139">
        <ele>183</ele>
        <time>2013-05-01T08:39:10Z</time>
      </trkpt>
      <trkpt lat="48.80104" lon="2.22134">
        <ele>183</ele>
        <time>2013-05-01T08:39:16Z</time>
      </trkpt>
      <trkpt lat="48.80117" lon="2.22131">
        <ele>183</ele>
        <time>2013-05-01T08:39:23Z</time>
      </trkpt>
      <trkpt lat="48.80127" lon="2.22125">
        <ele>183</ele>
        <time>2013-05-01T08:39:27Z</time>
      </trkpt>
      <trkpt lat="48.80138" lon="2.22119">
        <ele>183</ele>
        <time>2013-05-01T08:39:34Z</time>
      </trkpt>
      <trkpt lat="48.80151" lon="2.22113">
        <ele>183</ele>
        <time>2013-05-01T08:39:46Z</time>
      </trkpt>
      <trkpt lat="48.80162" lon="2.22109">
        <ele>183</ele>
        <time>2013-05-01T08:39:54Z</time>
      </trkpt>
      <trkpt lat="48.80178" lon="2.22111">
        <ele>182</ele>
        <time>2013-05-01T08:40:06Z</time>
      </trkpt>
      <trkpt lat="48.8019" lon="2.22104">
        <ele>182</ele>
        <time>2013-05-01T08:40:12Z</time>
      </trkpt>
      <trkpt lat="48.80196" lon="2.22089">
        <ele>182</ele>
        <time>2013-05-01T08:40:21Z</time>
      </trkpt>
      <trkpt lat="48.80204" lon="2.22075">
        <ele>184</ele>
        <time>2013-05-01T08:40:27Z</time>
      </trkpt>
      <trkpt lat="48.80215" lon="2.22061">
        <ele>184</ele>
        <time>2013-05-01T08:40:37Z</time>
      </trkpt>
      <trkpt lat="48.80225" lon="2.22052">
        <ele>184</ele>
        <time>2013-05-01T08:40:48Z</time>
      </trkpt>
      <trkpt lat="48.80236" lon="2.22047">
        <ele>184</ele>
        <time>2013-05-01T08:40:53Z</time>
      </trkpt>
      <trkpt lat="48.80249" lon="2.22037">
        <ele>184</ele>
        <time>2013-05-01T08:41:02Z</time>
      </trkpt>
      <trkpt lat="48.80261" lon="2.22033">
        <ele>183</ele>
        <time>2013-05-01T08:41:09Z</time>
      </trkpt>
      <trkpt lat="48.80274" lon="2.22025">
        <ele>182</ele>
        <time>2013-05-01T08:41:23Z</time>
      </trkpt>
      <trkpt lat="48.80283" lon="2.22013">
        <ele>182</ele>
        <time>2013-05-01T08:41:31Z</time>
      </trkpt>
      <trkpt lat="48.80293" lon="2.22001">
        <ele>182</ele>
        <time>2013-05-01T08:42:04Z</time>
      </trkpt>
      <trkpt lat="48.80301" lon="2.2199">
        <ele>182</ele>
        <time>2013-05-01T08:42:27Z</time>
      </trkpt>
      <trkpt lat="48.80302" lon="2.21972">
        <ele>182</ele>
        <time>2013-05-01T08:43:19Z</time>
      </trkpt>
      <trkpt lat="48.80318" lon="2.21971">
        <ele>182</ele>
        <time>2013-05-01T08:43:26Z</time>
      </trkpt>
      <trkpt lat="48.80332" lon="2.21967">
        <ele>182</ele>
        <time>2013-05-01T08:43:33Z</time>
      </trkpt>
      <trkpt lat="48.80345" lon="2.21954">
        <ele>180</ele>
        <time>2013-05-01T08:43:46Z</time>
      </trkpt>
      <trkpt lat="48.80359" lon="2.21943">
        <ele>180</ele>
        <time>2013-05-01T08:43:59Z</time>
      </trkpt>
      <trkpt lat="48.80373" lon="2.21941">
        <ele>179</ele>
        <time>2013-05-01T08:44:06Z</time>
      </trkpt>
      <trkpt lat="48.80385" lon="2.2193">
        <ele>179</ele>
        <time>2013-05-01T08:44:16Z</time>
      </trkpt>
      <trkpt lat="48.80392" lon="2.21924">
        <ele>179</ele>
        <time>2013-05-01T08:44:25Z</time>
      </trkpt>
      <trkpt lat="48.80399" lon="2.21915">
        <ele>180</ele>
        <time>2013-05-01T08:44:30Z</time>
      </trkpt>
      <trkpt lat="48.80409" lon="2.21906">
        <ele>180</ele>
        <time>2013-05-01T08:44:38Z</time>
      </trkpt>
      <trkpt lat="48.80419" lon="2.21897">
        <ele>179</ele>
        <time>2013-05-01T08:44:44Z</time>
      </trkpt>
      <trkpt lat="48.80428" lon="2.21887">
        <ele>179</ele>
        <time>2013-05-01T08:44:51Z</time>
      </trkpt>
      <trkpt lat="48.80439" lon="2.21879">
        <ele>179</ele>
        <time>2013-05-01T08:44:57Z</time>
      </trkpt>
      <trkpt lat="48.80447" lon="2.21876">
        <ele>179</ele>
        <time>2013-05-01T08:45:00Z</time>
      </trkpt>
      <trkpt lat="48.80456" lon="2.21865">
        <ele>180</ele>
        <time>2013-05-01T08:45:11Z</time>
      </trkpt>
      <trkpt lat="48.80464" lon="2.21853">
        <ele>180</ele>
        <time>2013-05-01T08:45:20Z</time>
      </trkpt>
      <trkpt lat="48.80477" lon="2.21842">
        <ele>180</ele>
        <time>2013-05-01T08:45:31Z</time>
      </trkpt>
      <trkpt lat="48.80494" lon="2.21837">
        <ele>181</ele>
        <time>2013-05-01T08:45:38Z</time>
      </trkpt>
      <trkpt lat="48.80505" lon="2.21834">
        <ele>180</ele>
        <time>2013-05-01T08:45:44Z</time>
      </trkpt>
      <trkpt lat="48.80512" lon="2.2183">
        <ele>181</ele>
        <time>2013-05-01T08:45:51Z</time>
      </trkpt>
      <trkpt lat="48.80521" lon="2.2182">
        <ele>181</ele>
        <time>2013-05-01T08:45:56Z</time>
      </trkpt>
      <trkpt lat="48.8053" lon="2.21808">
        <ele>181</ele>
        <time>2013-05-01T08:46:03Z</time>
      </trkpt>
      <trkpt lat="48.80541" lon="2.21799">
        <ele>180</ele>
        <time>2013-05-01T08:46:12Z</time>
      </trkpt>
      <trkpt lat="48.80552" lon="2.21793">
        <ele>180</ele>
        <time>2013-05-01T08:46:19Z</time>
      </trkpt>
      <trkpt lat="48.80571" lon="2.21807">
        <ele>180</ele>
        <time>2013-05-01T08:46:31Z</time>
      </trkpt>
      <trkpt lat="48.80578" lon="2.2182">
        <ele>179</ele>
        <time>2013-05-01T08:46:40Z</time>
      </trkpt>
      <trkpt lat="48.8058" lon="2.21837">
        <ele>178</ele>
        <time>2013-05-01T08:46:49Z</time>
      </trkpt>
      <trkpt lat="48.80583" lon="2.21856">
        <ele>178</ele>
        <time>2013-05-01T08:46:55Z</time>
      </trkpt>
      <trkpt lat="48.80583" lon="2.21876">
        <ele>177</ele>
        <time>2013-05-01T08:47:01Z</time>
      </trkpt>
      <trkpt lat="48.80584" lon="2.21896">
        <ele>177</ele>
        <time>2013-05-01T08:47:07Z</time>
      </trkpt>
      <trkpt lat="48.80584" lon="2.21914">
        <ele>176</ele>
        <time>2013-05-01T08:47:12Z</time>
      </trkpt>
      <trkpt lat="48.80591" lon="2.21928">
        <ele>176</ele>
        <time>2013-05-01T08:47:17Z</time>
      </trkpt>
      <trkpt lat="48.80599" lon="2.21938">
        <ele>176</ele>
        <time>2013-05-01T08:47:25Z</time>
      </trkpt>
      <trkpt lat="48.80608" lon="2.21951">
        <ele>176</ele>
        <time>2013-05-01T08:47:38Z</time>
      </trkpt>
      <trkpt lat="48.80617" lon="2.2197">
        <ele>175</ele>
        <time>2013-05-01T08:47:49Z</time>
      </trkpt>
      <trkpt lat="48.80616" lon="2.21987">
        <ele>175</ele>
        <time>2013-05-01T08:47:59Z</time>
      </trkpt>
      <trkpt lat="48.80617" lon="2.22004">
        <ele>173</ele>
        <time>2013-05-01T08:48:04Z</time>
      </trkpt>
      <trkpt lat="48.80622" lon="2.2202">
        <ele>173</ele>
        <time>2013-05-01T08:48:11Z</time>
      </trkpt>
      <trkpt lat="48.80626" lon="2.22037">
        <ele>173</ele>
        <time>2013-05-01T08:48:15Z</time>
      </trkpt>
      <trkpt lat="48.80627" lon="2.22059">
        <ele>173</ele>
        <time>2013-05-01T08:48:26Z</time>
      </trkpt>
      <trkpt lat="48.80627" lon="2.22077">
        <ele>173</ele>
        <time>2013-05-01T08:48:35Z</time>
      </trkpt>
      <trkpt lat="48.80632" lon="2.22092">
        <ele>172</ele>
        <time>2013-05-01T08:48:42Z</time>
      </trkpt>
      <trkpt lat="48.80642" lon="2.221">
        <ele>172</ele>
        <time>2013-05-01T08:48:52Z</time>
      </trkpt>
      <trkpt lat="48.8065" lon="2.22114">
        <ele>172</ele>
        <time>2013-05-01T08:49:09Z</time>
      </trkpt>
      <trkpt lat="48.80653" lon="2.2213">
        <ele>172</ele>
        <time>2013-05-01T08:49:20Z</time>
      </trkpt>
      <trkpt lat="48.80658" lon="2.22147">
        <ele>172</ele>
        <time>2013-05-01T08:49:31Z</time>
      </trkpt>
      <trkpt lat="48.8066" lon="2.22166">
        <ele>172</ele>
        <time>2013-05-01T08:49:39Z</time>
      </trkpt>
      <trkpt lat="48.80659" lon="2.22184">
        <ele>173</ele>
        <time>2013-05-01T08:49:45Z</time>
      </trkpt>
      <trkpt lat="48.80663" lon="2.22204">
        <ele>173</ele>
        <time>2013-05-01T08:49:51Z</time>
      </trkpt>
      <trkpt lat="48.80669" lon="2.2222">
        <ele>170</ele>
        <time>2013-05-01T08:49:56Z</time>
      </trkpt>
      <trkpt lat="48.80669" lon="2.22239">
        <ele>171</ele>
        <time>2013-05-01T08:50:04Z</time>
      </trkpt>
      <trkpt lat="48.80679" lon="2.22232">
        <ele>170</ele>
        <time>2013-05-01T08:50:21Z</time>
      </trkpt>
      <trkpt lat="48.80681" lon="2.22217">
        <ele>170</ele>
        <time>2013-05-01T08:50:30Z</time>
      </trkpt>
      <trkpt lat="48.80681" lon="2.22205">
        <ele>170</ele>
        <time>2013-05-01T08:50:35Z</time>
      </trkpt>
      <trkpt lat="48.80682" lon="2.22192">
        <ele>170</ele>
        <time>2013-05-01T08:50:42Z</time>
      </trkpt>
      <trkpt lat="48.80685" lon="2.22181">
        <ele>170</ele>
        <time>2013-05-01T08:50:51Z</time>
      </trkpt>
      <trkpt lat="48.80687" lon="2.22164">
        <ele>170</ele>
        <time>2013-05-01T08:51:13Z</time>
      </trkpt>
      <trkpt lat="48.8069" lon="2.22154">
        <ele>170</ele>
        <time>2013-05-01T08:51:18Z</time>
      </trkpt>
      <trkpt lat="48.80693" lon="2.22142">
        <ele>169</ele>
        <time>2013-05-01T08:51:26Z</time>
      </trkpt>
      <trkpt lat="48.80693" lon="2.22131">
        <ele>169</ele>
        <time>2013-05-01T08:51:32Z</time>
      </trkpt>
      <trkpt lat="48.80697" lon="2.22119">
        <ele>169</ele>
        <time>2013-05-01T08:51:39Z</time>
      </trkpt>
      <trkpt lat="48.80702" lon="2.22104">
        <ele>169</ele>
        <time>2013-05-01T08:51:48Z</time>
      </trkpt>
      <trkpt lat="48.80706" lon="2.22088">
        <ele>169</ele>
        <time>2013-05-01T08:51:55Z</time>
      </trkpt>
      <trkpt lat="48.8071" lon="2.2207">
        <ele>170</ele>
        <time>2013-05-01T08:52:03Z</time>
      </trkpt>
      <trkpt lat="48.80716" lon="2.22057">
        <ele>169</ele>
        <time>2013-05-01T08:52:17Z</time>
      </trkpt>
      <trkpt lat="48.80724" lon="2.22037">
        <ele>169</ele>
        <time>2013-05-01T08:52:34Z</time>
      </trkpt>
      <trkpt lat="48.80726" lon="2.22013">
        <ele>169</ele>
        <time>2013-05-01T08:52:46Z</time>
      </trkpt>
      <trkpt lat="48.80726" lon="2.21988">
        <ele>170</ele>
        <time>2013-05-01T08:52:53Z</time>
      </trkpt>
      <trkpt lat="48.8073" lon="2.21966">
        <ele>171</ele>
        <time>2013-05-01T08:53:00Z</time>
      </trkpt>
      <trkpt lat="48.80735" lon="2.21942">
        <ele>171</ele>
        <time>2013-05-01T08:53:08Z</time>
      </trkpt>
      <trkpt lat="48.80738" lon="2.21923">
        <ele>170</ele>
        <time>2013-05-01T08:53:14Z</time>
      </trkpt>
      <trkpt lat="48.80741" lon="2.21906">
        <ele>171</ele>
        <time>2013-05-01T08:53:20Z</time>
      </trkpt>
      <trkpt lat="48.80741" lon="2.21881">
        <ele>172</ele>
        <time>2013-05-01T08:53:26Z</time>
      </trkpt>
      <trkpt lat="48.80746" lon="2.21864">
        <ele>172</ele>
        <time>2013-05-01T08:53:29Z</time>
      </trkpt>
      <trkpt lat="48.80751" lon="2.21849">
        <ele>168</ele>
        <time>2013-05-01T08:53:34Z</time>
      </trkpt>
      <trkpt lat="48.80753" lon="2.21832">
        <ele>169</ele>
        <time>2013-05-01T08:53:42Z</time>
      </trkpt>
      <trkpt lat="48.8075" lon="2.21815">
        <ele>171</ele>
        <time>2013-05-01T08:53:52Z</time>
      </trkpt>
      <trkpt lat="48.8075" lon="2.21797">
        <ele>172</ele>
        <time>2013-05-01T08:54:00Z</time>
      </trkpt>
      <trkpt lat="48.80755" lon="2.21774">
        <ele>168</ele>
        <time>2013-05-01T08:54:07Z</time>
      </trkpt>
      <trkpt lat="48.80757" lon="2.21758">
        <ele>169</ele>
        <time>2013-05-01T08:54:17Z</time>
      </trkpt>
      <trkpt lat="48.80759" lon="2.21745">
        <ele>169</ele>
        <time>2013-05-01T08:54:24Z</time>
      </trkpt>
      <trkpt lat="48.80761" lon="2.21732">
        <ele>169</ele>
        <time>2013-05-01T08:54:30Z</time>
      </trkpt>
      <trkpt lat="48.80762" lon="2.2172">
        <ele>169</ele>
        <time>2013-05-01T08:54:35Z</time>
      </trkpt>
      <trkpt lat="48.80765" lon="2.21708">
        <ele>169</ele>
        <time>2013-05-01T08:54:42Z</time>
      </trkpt>
      <trkpt lat="48.80768" lon="2.21699">
        <ele>169</ele>
        <time>2013-05-01T08:54:47Z</time>
      </trkpt>
      <trkpt lat="48.80773" lon="2.21688">
        <ele>169</ele>
        <time>2013-05-01T08:54:54Z</time>
      </trkpt>
      <trkpt lat="48.80776" lon="2.21677">
        <ele>169</ele>
        <time>2013-05-01T08:55:00Z</time>
      </trkpt>
      <trkpt lat="48.80781" lon="2.21662">
        <ele>171</ele>
        <time>2013-05-01T08:55:09Z</time>
      </trkpt>
      <trkpt lat="48.80784" lon="2.21651">
        <ele>171</ele>
        <time>2013-05-01T08:55:16Z</time>
      </trkpt>
      <trkpt lat="48.80789" lon="2.21634">
        <ele>171</ele>
        <time>2013-05-01T08:55:37Z</time>
      </trkpt>
      <trkpt lat="48.80797" lon="2.21619">
        <ele>171</ele>
        <time>2013-05-01T08:55:45Z</time>
      </trkpt>
      <trkpt lat="48.80806" lon="2.21606">
        <ele>171</ele>
        <time>2013-05-01T08:55:53Z</time>
      </trkpt>
      <trkpt lat="48.80811" lon="2.21589">
        <ele>171</ele>
        <time>2013-05-01T08:56:01Z</time>
      </trkpt>
      <trkpt lat="48.80817" lon="2.21583">
        <ele>173</ele>
        <time>2013-05-01T08:56:06Z</time>
      </trkpt>
      <trkpt lat="48.80828" lon="2.21577">
        <ele>172</ele>
        <time>2013-05-01T08:56:14Z</time>
      </trkpt>
      <trkpt lat="48.80838" lon="2.21573">
        <ele>170</ele>
        <time>2013-05-01T08:56:23Z</time>
      </trkpt>
      <trkpt lat="48.80845" lon="2.21568">
        <ele>170</ele>
        <time>2013-05-01T08:56:29Z</time>
      </trkpt>
      <trkpt lat="48.80853" lon="2.21556">
        <ele>170</ele>
        <time>2013-05-01T08:56:37Z</time>
      </trkpt>
      <trkpt lat="48.80862" lon="2.21546">
        <ele>170</ele>
        <time>2013-05-01T08:56:45Z</time>
      </trkpt>
      <trkpt lat="48.8087" lon="2.21535">
        <ele>170</ele>
        <time>2013-05-01T08:56:53Z</time>
      </trkpt>
      <trkpt lat="48.80881" lon="2.21521">
        <ele>170</ele>
        <time>2013-05-01T08:57:05Z</time>
      </trkpt>
      <trkpt lat="48.80887" lon="2.21505">
        <ele>169</ele>
        <time>2013-05-01T08:57:13Z</time>
      </trkpt>
      <trkpt lat="48.80898" lon="2.21487">
        <ele>171</ele>
        <time>2013-05-01T08:57:24Z</time>
      </trkpt>
      <trkpt lat="48.80909" lon="2.21478">
        <ele>171</ele>
        <time>2013-05-01T08:57:28Z</time>
      </trkpt>
      <trkpt lat="48.80922" lon="2.2147">
        <ele>170</ele>
        <time>2013-05-01T08:57:35Z</time>
      </trkpt>
      <trkpt lat="48.80932" lon="2.21458">
        <ele>170</ele>
        <time>2013-05-01T08:57:48Z</time>
      </trkpt>
      <trkpt lat="48.80938" lon="2.21453">
        <ele>170</ele>
        <time>2013-05-01T08:57:52Z</time>
      </trkpt>
      <trkpt lat="48.80949" lon="2.21456">
        <ele>170</ele>
        <time>2013-05-01T08:57:57Z</time>
      </trkpt>
      <trkpt lat="48.80958" lon="2.21465">
        <ele>170</ele>
        <time>2013-05-01T08:58:03Z</time>
      </trkpt>
      <trkpt lat="48.80966" lon="2.21477">
        <ele>170</ele>
        <time>2013-05-01T08:58:13Z</time>
      </trkpt>
      <trkpt lat="48.80973" lon="2.21483">
        <ele>169</ele>
        <time>2013-05-01T08:58:24Z</time>
      </trkpt>
      <trkpt lat="48.80985" lon="2.21486">
        <ele>169</ele>
        <time>2013-05-01T08:58:34Z</time>
      </trkpt>
      <trkpt lat="48.81001" lon="2.21498">
        <ele>168</ele>
        <time>2013-05-01T08:58:46Z</time>
      </trkpt>
      <trkpt lat="48.81008" lon="2.21511">
        <ele>168</ele>
        <time>2013-05-01T08:58:57Z</time>
      </trkpt>
      <trkpt lat="48.81013" lon="2.2152">
        <ele>167</ele>
        <time>2013-05-01T08:59:16Z</time>
      </trkpt>
      <trkpt lat="48.81017" lon="2.2153">
        <ele>167</ele>
        <time>2013-05-01T08:59:31Z</time>
      </trkpt>
      <trkpt lat="48.81024" lon="2.21537">
        <ele>167</ele>
        <time>2013-05-01T08:59:49Z</time>
      </trkpt>
      <trkpt lat="48.8102" lon="2.21546">
        <ele>167</ele>
        <time>2013-05-01T09:00:22Z</time>
      </trkpt>
      <trkpt lat="48.81028" lon="2.21557">
        <ele>167</ele>
        <time>2013-05-01T09:01:01Z</time>
      </trkpt>
      <trkpt lat="48.81037" lon="2.21575">
        <ele>167</ele>
        <time>2013-05-01T09:01:11Z</time>
      </trkpt>
      <trkpt lat="48.81043" lon="2.2159">
        <ele>166</ele>
        <time>2013-05-01T09:01:20Z</time>
      </trkpt>
      <trkpt lat="48.81047" lon="2.21609">
        <ele>166</ele>
        <time>2013-05-01T09:01:30Z</time>
      </trkpt>
      <trkpt lat="48.81052" lon="2.21625">
        <ele>167</ele>
        <time>2013-05-01T09:01:38Z</time>
      </trkpt>
      <trkpt lat="48.81057" lon="2.21647">
        <ele>167</ele>
        <time>2013-05-01T09:01:48Z</time>
      </trkpt>
      <trkpt lat="48.81059" lon="2.21672">
        <ele>167</ele>
        <time>2013-05-01T09:01:56Z</time>
      </trkpt>
      <trkpt lat="48.81057" lon="2.21688">
        <ele>167</ele>
        <time>2013-05-01T09:02:02Z</time>
      </trkpt>
      <trkpt lat="48.81059" lon="2.21711">
        <ele>167</ele>
        <time>2013-05-01T09:02:12Z</time>
      </trkpt>
      <trkpt lat="48.81061" lon="2.21733">
        <ele>166</ele>
        <time>2013-05-01T09:02:21Z</time>
      </trkpt>
      <trkpt lat="48.81063" lon="2.21749">
        <ele>166</ele>
        <time>2013-05-01T09:02:28Z</time>
      </trkpt>
      <trkpt lat="48.81062" lon="2.21766">
        <ele>165</ele>
        <time>2013-05-01T09:02:37Z</time>
      </trkpt>
      <trkpt lat="48.81071" lon="2.21784">
        <ele>165</ele>
        <time>2013-05-01T09:02:48Z</time>
      </trkpt>
      <trkpt lat="48.81079" lon="2.21795">
        <ele>165</ele>
        <time>2013-05-01T09:02:54Z</time>
      </trkpt>
      <trkpt lat="48.81085" lon="2.2181">
        <ele>163</ele>
        <time>2013-05-01T09:03:00Z</time>
      </trkpt>
      <trkpt lat="48.81081" lon="2.21826">
        <ele>164</ele>
        <time>2013-05-01T09:03:12Z</time>
      </trkpt>
      <trkpt lat="48.81082" lon="2.21849">
        <ele>163</ele>
        <time>2013-05-01T09:03:22Z</time>
      </trkpt>
      <trkpt lat="48.81087" lon="2.21869">
        <ele>161</ele>
        <time>2013-05-01T09:03:51Z</time>
      </trkpt>
      <trkpt lat="48.81099" lon="2.21883">
        <ele>160</ele>
        <time>2013-05-01T09:04:01Z</time>
      </trkpt>
      <trkpt lat="48.81107" lon="2.2189">
        <ele>160</ele>
        <time>2013-05-01T09:04:05Z</time>
      </trkpt>
      <trkpt lat="48.81112" lon="2.21904">
        <ele>160</ele>
        <time>2013-05-01T09:04:16Z</time>
      </trkpt>
      <trkpt lat="48.8112" lon="2.21916">
        <ele>159</ele>
        <time>2013-05-01T09:04:26Z</time>
      </trkpt>
      <trkpt lat="48.81125" lon="2.21933">
        <ele>155</ele>
        <time>2013-05-01T09:04:32Z</time>
      </trkpt>
      <trkpt lat="48.81125" lon="2.21952">
        <ele>155</ele>
        <time>2013-05-01T09:04:45Z</time>
      </trkpt>
      <trkpt lat="48.81132" lon="2.21965">
        <ele>154</ele>
        <time>2013-05-01T09:04:55Z</time>
      </trkpt>
      <trkpt lat="48.81139" lon="2.21982">
        <ele>153</ele>
        <time>2013-05-01T09:05:09Z</time>
      </trkpt>
      <trkpt lat="48.81148" lon="2.21999">
        <ele>152</ele>
        <time>2013-05-01T09:05:16Z</time>
      </trkpt>
      <trkpt lat="48.81153" lon="2.22012">
        <ele>150</ele>
        <time>2013-05-01T09:05:18Z</time>
      </trkpt>
      <trkpt lat="48.81157" lon="2.22022">
        <ele>150</ele>
        <time>2013-05-01T09:05:23Z</time>
      </trkpt>
      <trkpt lat="48.81165" lon="2.22042">
        <ele>150</ele>
        <time>2013-05-01T09:05:36Z</time>
      </trkpt>
      <trkpt lat="48.81172" lon="2.22068">
        <ele>148</ele>
        <time>2013-05-01T09:05:49Z</time>
      </trkpt>
      <trkpt lat="48.81178" lon="2.22087">
        <ele>149</ele>
        <time>2013-05-01T09:06:36Z</time>
      </trkpt>
      <trkpt lat="48.81179" lon="2.22088">
        <ele>149</ele>
        <time>2013-05-01T09:07:19Z</time>
      </trkpt>
      <trkpt lat="48.81181" lon="2.22075">
        <ele>148</ele>
        <time>2013-05-01T09:07:30Z</time>
      </trkpt>
      <trkpt lat="48.81185" lon="2.22086">
        <ele>149</ele>
        <time>2013-05-01T09:08:38Z</time>
      </trkpt>
      <trkpt lat="48.8119" lon="2.22091">
        <ele>150</ele>
        <time>2013-05-01T09:09:15Z</time>
      </trkpt>
      <trkpt lat="48.81195" lon="2.22101">
        <ele>150</ele>
        <time>2013-05-01T09:09:25Z</time>
      </trkpt>
      <trkpt lat="48.81198" lon="2.22114">
        <ele>151</ele>
        <time>2013-05-01T09:09:37Z</time>
      </trkpt>
      <trkpt lat="48.81202" lon="2.22123">
        <ele>151</ele>
        <time>2013-05-01T09:09:45Z</time>
      </trkpt>
      <trkpt lat="48.81205" lon="2.22134">
        <ele>152</ele>
        <time>2013-05-01T09:09:53Z</time>
      </trkpt>
      <trkpt lat="48.81207" lon="2.22146">
        <ele>152</ele>
        <time>2013-05-01T09:09:59Z</time>
      </trkpt>
      <trkpt lat="48.81211" lon="2.22157">
        <ele>152</ele>
        <time>2013-05-01T09:10:07Z</time>
      </trkpt>
      <trkpt lat="48.81211" lon="2.22166">
        <ele>152</ele>
        <time>2013-05-01T09:10:14Z</time>
      </trkpt>
      <trkpt lat="48.81211" lon="2.22175">
        <ele>158</ele>
        <time>2013-05-01T09:10:22Z</time>
      </trkpt>
      <trkpt lat="48.81219" lon="2.22175">
        <ele>157</ele>
        <time>2013-05-01T09:10:43Z</time>
      </trkpt>
      <trkpt lat="48.81224" lon="2.22166">
        <ele>151</ele>
        <time>2013-05-01T09:10:54Z</time>
      </trkpt>
      <trkpt lat="48.81234" lon="2.22159">
        <ele>151</ele>
        <time>2013-05-01T09:11:13Z</time>
      </trkpt>
      <trkpt lat="48.81247" lon="2.22148">
        <ele>150</ele>
        <time>2013-05-01T09:11:32Z</time>
      </trkpt>
      <trkpt lat="48.81254" lon="2.22144">
        <ele>147</ele>
        <time>2013-05-01T09:11:41Z</time>
      </trkpt>
      <trkpt lat="48.81265" lon="2.2214">
        <ele>146</ele>
        <time>2013-05-01T09:11:52Z</time>
      </trkpt>
      <trkpt lat="48.81279" lon="2.22137">
        <ele>146</ele>
        <time>2013-05-01T09:12:04Z</time>
      </trkpt>
      <trkpt lat="48.81296" lon="2.22131">
        <ele>145</ele>
        <time>2013-05-01T09:12:10Z</time>
      </trkpt>
      <trkpt lat="48.81311" lon="2.22133">
        <ele>145</ele>
        <time>2013-05-01T09:12:14Z</time>
      </trkpt>
      <trkpt lat="48.81325" lon="2.22134">
        <ele>144</ele>
        <time>2013-05-01T09:12:16Z</time>
      </trkpt>
      <trkpt lat="48.8134" lon="2.22136">
        <ele>141</ele>
        <time>2013-05-01T09:12:26Z</time>
      </trkpt>
      <trkpt lat="48.81353" lon="2.22132">
        <ele>140</ele>
        <time>2013-05-01T09:12:41Z</time>
      </trkpt>
      <trkpt lat="48.8136" lon="2.22128">
        <ele>140</ele>
        <time>2013-05-01T09:12:51Z</time>
      </trkpt>
      <trkpt lat="48.8137" lon="2.22127">
        <ele>139</ele>
        <time>2013-05-01T09:12:54Z</time>
      </trkpt>
      <trkpt lat="48.81381" lon="2.22131">
        <ele>139</ele>
        <time>2013-05-01T09:13:03Z</time>
      </trkpt>
      <trkpt lat="48.81392" lon="2.22136">
        <ele>139</ele>
        <time>2013-05-01T09:13:13Z</time>
      </trkpt>
      <trkpt lat="48.81401" lon="2.22139">
        <ele>138</ele>
        <time>2013-05-01T09:13:25Z</time>
      </trkpt>
      <trkpt lat="48.81412" lon="2.22147">
        <ele>138</ele>
        <time>2013-05-01T09:13:30Z</time>
      </trkpt>
      <trkpt lat="48.81422" lon="2.22152">
        <ele>134</ele>
        <time>2013-05-01T09:13:34Z</time>
      </trkpt>
      <trkpt lat="48.81437" lon="2.2216">
        <ele>134</ele>
        <time>2013-05-01T09:13:41Z</time>
      </trkpt>
      <trkpt lat="48.81448" lon="2.22166">
        <ele>133</ele>
        <time>2013-05-01T09:13:47Z</time>
      </trkpt>
      <trkpt lat="48.81455" lon="2.22174">
        <ele>134</ele>
        <time>2013-05-01T09:13:49Z</time>
      </trkpt>
      <trkpt lat="48.81462" lon="2.22177">
        <ele>134</ele>
        <time>2013-05-01T09:13:53Z</time>
      </trkpt>
      <trkpt lat="48.8147" lon="2.22176">
        <ele>133</ele>
        <time>2013-05-01T09:14:00Z</time>
      </trkpt>
      <trkpt lat="48.81477" lon="2.22181">
        <ele>133</ele>
        <time>2013-05-01T09:14:09Z</time>
      </trkpt>
      <trkpt lat="48.81484" lon="2.22183">
        <ele>132</ele>
        <time>2013-05-01T09:14:40Z</time>
      </trkpt>
      <trkpt lat="48.81492" lon="2.22185">
        <ele>132</ele>
        <time>2013-05-01T09:14:49Z</time>
      </trkpt>
      <trkpt lat="48.815" lon="2.22188">
        <ele>132</ele>
        <time>2013-05-01T09:14:56Z</time>
      </trkpt>
      <trkpt lat="48.81508" lon="2.22177">
        <ele>128</ele>
        <time>2013-05-01T09:15:10Z</time>
      </trkpt>
      <trkpt lat="48.81509" lon="2.22166">
        <ele>128</ele>
        <time>2013-05-01T09:15:19Z</time>
      </trkpt>
      <trkpt lat="48.81517" lon="2.2216">
        <ele>127</ele>
        <time>2013-05-01T09:15:30Z</time>
      </trkpt>
      <trkpt lat="48.81524" lon="2.2215">
        <ele>127</ele>
        <time>2013-05-01T09:15:37Z</time>
      </trkpt>
      <trkpt lat="48.81529" lon="2.2214">
        <ele>127</ele>
        <time>2013-05-01T09:15:42Z</time>
      </trkpt>
      <trkpt lat="48.81532" lon="2.22127">
        <ele>127</ele>
        <time>2013-05-01T09:15:49Z</time>
      </trkpt>
      <trkpt lat="48.81532" lon="2.22116">
        <ele>127</ele>
        <time>2013-05-01T09:15:55Z</time>
      </trkpt>
      <trkpt lat="48.81532" lon="2.22107">
        <ele>127</ele>
        <time>2013-05-01T09:15:59Z</time>
      </trkpt>
      <trkpt lat="48.8153" lon="2.22097">
        <ele>127</ele>
        <time>2013-05-01T09:16:06Z</time>
      </trkpt>
      <trkpt lat="48.81528" lon="2.22085">
        <ele>127</ele>
        <time>2013-05-01T09:16:12Z</time>
      </trkpt>
      <trkpt lat="48.81528" lon="2.22076">
        <ele>130</ele>
        <time>2013-05-01T09:16:17Z</time>
      </trkpt>
      <trkpt lat="48.81532" lon="2.22066">
        <ele>130</ele>
        <time>2013-05-01T09:16:27Z</time>
      </trkpt>
      <trkpt lat="48.8154" lon="2.22056">
        <ele>130</ele>
        <time>2013-05-01T09:16:35Z</time>
      </trkpt>
      <trkpt lat="48.81547" lon="2.2205">
        <ele>130</ele>
        <time>2013-05-01T09:16:42Z</time>
      </trkpt>
      <trkpt lat="48.81551" lon="2.22041">
        <ele>131</ele>
        <time>2013-05-01T09:16:47Z</time>
      </trkpt>
      <trkpt lat="48.81558" lon="2.22032">
        <ele>131</ele>
        <time>2013-05-01T09:16:53Z</time>
      </trkpt>
      <trkpt lat="48.81564" lon="2.22025">
        <ele>131</ele>
        <time>2013-05-01T09:16:59Z</time>
      </trkpt>
      <trkpt lat="48.81571" lon="2.22019">
        <ele>132</ele>
        <time>2013-05-01T09:17:06Z</time>
      </trkpt>
      <trkpt lat="48.81569" lon="2.22007">
        <ele>132</ele>
        <time>2013-05-01T09:17:18Z</time>
      </trkpt>
      <trkpt lat="48.81561" lon="2.22001">
        <ele>132</ele>
        <time>2013-05-01T09:17:25Z</time>
      </trkpt>
      <trkpt lat="48.81556" lon="2.21993">
        <ele>137</ele>
        <time>2013-05-01T09:17:32Z</time>
      </trkpt>
      <trkpt lat="48.8155" lon="2.21985">
        <ele>137</ele>
        <time>2013-05-01T09:17:41Z</time>
      </trkpt>
      <trkpt lat="48.81541" lon="2.21969">
        <ele>138</ele>
        <time>2013-05-01T09:17:53Z</time>
      </trkpt>
      <trkpt lat="48.81531" lon="2.21959">
        <ele>139</ele>
        <time>2013-05-01T09:18:01Z</time>
      </trkpt>
      <trkpt lat="48.81522" lon="2.2195">
        <ele>139</ele>
        <time>2013-05-01T09:18:09Z</time>
      </trkpt>
      <trkpt lat="48.81515" lon="2.21944">
        <ele>140</ele>
        <time>2013-05-01T09:18:15Z</time>
      </trkpt>
      <trkpt lat="48.81507" lon="2.21935">
        <ele>141</ele>
        <time>2013-05-01T09:18:26Z</time>
      </trkpt>
      <trkpt lat="48.81495" lon="2.21932">
        <ele>142</ele>
        <time>2013-05-01T09:18:38Z</time>
      </trkpt>
      <trkpt lat="48.81488" lon="2.21932">
        <ele>142</ele>
        <time>2013-05-01T09:18:44Z</time>
      </trkpt>
      <trkpt lat="48.81478" lon="2.21927">
        <ele>143</ele>
        <time>2013-05-01T09:18:51Z</time>
      </trkpt>
      <trkpt lat="48.81474" lon="2.2192">
        <ele>143</ele>
        <time>2013-05-01T09:18:55Z</time>
      </trkpt>
      <trkpt lat="48.81476" lon="2.21899">
        <ele>146</ele>
        <time>2013-05-01T09:19:13Z</time>
      </trkpt>
      <trkpt lat="48.81482" lon="2.21878">
        <ele>147</ele>
        <time>2013-05-01T09:19:23Z</time>
      </trkpt>
      <trkpt lat="48.8149" lon="2.21864">
        <ele>147</ele>
        <time>2013-05-01T09:19:31Z</time>
      </trkpt>
      <trkpt lat="48.81495" lon="2.2185">
        <ele>148</ele>
        <time>2013-05-01T09:19:38Z</time>
      </trkpt>
      <trkpt lat="48.81503" lon="2.21844">
        <ele>147</ele>
        <time>2013-05-01T09:19:44Z</time>
      </trkpt>
      <trkpt lat="48.8151" lon="2.21848">
        <ele>146</ele>
        <time>2013-05-01T09:19:56Z</time>
      </trkpt>
      <trkpt lat="48.81522" lon="2.21842">
        <ele>146</ele>
        <time>2013-05-01T09:20:09Z</time>
      </trkpt>
      <trkpt lat="48.81531" lon="2.21832">
        <ele>149</ele>
        <time>2013-05-01T09:20:19Z</time>
      </trkpt>
      <trkpt lat="48.8154" lon="2.21823">
        <ele>149</ele>
        <time>2013-05-01T09:20:28Z</time>
      </trkpt>
      <trkpt lat="48.81545" lon="2.21813">
        <ele>149</ele>
        <time>2013-05-01T09:20:35Z</time>
      </trkpt>
      <trkpt lat="48.81546" lon="2.21802">
        <ele>149</ele>
        <time>2013-05-01T09:20:55Z</time>
      </trkpt>
      <trkpt lat="48.81546" lon="2.2179">
        <ele>150</ele>
        <time>2013-05-01T09:21:02Z</time>
      </trkpt>
      <trkpt lat="48.81551" lon="2.21776">
        <ele>150</ele>
        <time>2013-05-01T09:21:12Z</time>
      </trkpt>
      <trkpt lat="48.81556" lon="2.21768">
        <ele>150</ele>
        <time>2013-05-01T09:21:20Z</time>
      </trkpt>
      <trkpt lat="48.81549" lon="2.21769">
        <ele>150</ele>
        <time>2013-05-01T09:22:04Z</time>
      </trkpt>
      <trkpt lat="48.81547" lon="2.21776">
        <ele>150</ele>
        <time>2013-05-01T09:22:09Z</time>
      </trkpt>
      <trkpt lat="48.81549" lon="2.21768">
        <ele>150</ele>
        <time>2013-05-01T09:23:01Z</time>
      </trkpt>
      <trkpt lat="48.81554" lon="2.21769">
        <ele>150</ele>
        <time>2013-05-01T09:23:29Z</time>
      </trkpt>
      <trkpt lat="48.81562" lon="2.21766">
        <ele>151</ele>
        <time>2013-05-01T09:24:00Z</time>
      </trkpt>
      <trkpt lat="48.81569" lon="2.21768">
        <ele>151</ele>
        <time>2013-05-01T09:24:05Z</time>
      </trkpt>
      <trkpt lat="48.81577" lon="2.21764">
        <ele>151</ele>
        <time>2013-05-01T09:24:11Z</time>
      </trkpt>
      <trkpt lat="48.81585" lon="2.21761">
        <ele>151</ele>
        <time>2013-05-01T09:24:18Z</time>
      </trkpt>
      <trkpt lat="48.81593" lon="2.21759">
        <ele>151</ele>
        <time>2013-05-01T09:24:27Z</time>
      </trkpt>
      <trkpt lat="48.816" lon="2.21756">
        <ele>150</ele>
        <time>2013-05-01T09:24:32Z</time>
      </trkpt>
      <trkpt lat="48.81607" lon="2.21753">
        <ele>150</ele>
        <time>2013-05-01T09:24:39Z</time>
      </trkpt>
      <trkpt lat="48.81619" lon="2.21751">
        <ele>149</ele>
        <time>2013-05-01T09:24:53Z</time>
      </trkpt>
      <trkpt lat="48.8163" lon="2.21752">
        <ele>148</ele>
        <time>2013-05-01T09:25:11Z</time>
      </trkpt>
      <trkpt lat="48.81641" lon="2.21755">
        <ele>148</ele>
        <time>2013-05-01T09:25:17Z</time>
      </trkpt>
      <trkpt lat="48.81649" lon="2.21742">
        <ele>149</ele>
        <time>2013-05-01T09:25:27Z</time>
      </trkpt>
      <trkpt lat="48.81653" lon="2.21731">
        <ele>149</ele>
        <time>2013-05-01T09:25:31Z</time>
      </trkpt>
      <trkpt lat="48.81657" lon="2.21719">
        <ele>149</ele>
        <time>2013-05-01T09:25:35Z</time>
      </trkpt>
      <trkpt lat="48.81659" lon="2.21708">
        <ele>149</ele>
        <time>2013-05-01T09:25:40Z</time>
      </trkpt>
      <trkpt lat="48.81661" lon="2.21698">
        <ele>149</ele>
        <time>2013-05-01T09:25:45Z</time>
      </trkpt>
      <trkpt lat="48.81663" lon="2.21687">
        <ele>149</ele>
        <time>2013-05-01T09:25:50Z</time>
      </trkpt>
      <trkpt lat="48.81665" lon="2.21675">
        <ele>148</ele>
        <time>2013-05-01T09:25:56Z</time>
      </trkpt>
      <trkpt lat="48.81665" lon="2.21664">
        <ele>147</ele>
        <time>2013-05-01T09:26:03Z</time>
      </trkpt>
      <trkpt lat="48.81667" lon="2.21652">
        <ele>148</ele>
        <time>2013-05-01T09:26:09Z</time>
      </trkpt>
      <trkpt lat="48.81665" lon="2.2164">
        <ele>148</ele>
        <time>2013-05-01T09:26:15Z</time>
      </trkpt>
      <trkpt lat="48.81665" lon="2.2163">
        <ele>148</ele>
        <time>2013-05-01T09:26:22Z</time>
      </trkpt>
      <trkpt lat="48.81668" lon="2.21616">
        <ele>142</ele>
        <time>2013-05-01T09:26:30Z</time>
      </trkpt>
      <trkpt lat="48.81672" lon="2.21606">
        <ele>142</ele>
        <time>2013-05-01T09:26:38Z</time>
      </trkpt>
      <trkpt lat="48.81675" lon="2.21596">
        <ele>143</ele>
        <time>2013-05-01T09:26:47Z</time>
      </trkpt>
      <trkpt lat="48.81681" lon="2.21584">
        <ele>143</ele>
        <time>2013-05-01T09:26:54Z</time>
      </trkpt>
      <trkpt lat="48.81689" lon="2.21571">
        <ele>141</ele>
        <time>2013-05-01T09:27:02Z</time>
      </trkpt>
      <trkpt lat="48.81693" lon="2.21558">
        <ele>140</ele>
        <time>2013-05-01T09:27:10Z</time>
      </trkpt>
      <trkpt lat="48.8169" lon="2.21548">
        <ele>140</ele>
        <time>2013-05-01T09:27:16Z</time>
      </trkpt>
      <trkpt lat="48.81685" lon="2.21539">
        <ele>140</ele>
        <time>2013-05-01T09:27:22Z</time>
      </trkpt>
      <trkpt lat="48.8168" lon="2.21524">
        <ele>141</ele>
        <time>2013-05-01T09:27:30Z</time>
      </trkpt>
      <trkpt lat="48.81669" lon="2.21517">
        <ele>142</ele>
        <time>2013-05-01T09:27:42Z</time>
      </trkpt>
      <trkpt lat="48.8167" lon="2.21504">
        <ele>144</ele>
        <time>2013-05-01T09:27:47Z</time>
      </trkpt>
      <trkpt lat="48.81667" lon="2.21492">
        <ele>143</ele>
        <time>2013-05-01T09:27:55Z</time>
      </trkpt>
      <trkpt lat="48.81668" lon="2.21479">
        <ele>141</ele>
        <time>2013-05-01T09:28:02Z</time>
      </trkpt>
      <trkpt lat="48.81669" lon="2.21467">
        <ele>140</ele>
        <time>2013-05-01T09:28:09Z</time>
      </trkpt>
      <trkpt lat="48.81669" lon="2.21449">
        <ele>140</ele>
        <time>2013-05-01T09:28:21Z</time>
      </trkpt>
      <trkpt lat="48.8167" lon="2.21433">
        <ele>142</ele>
        <time>2013-05-01T09:28:33Z</time>
      </trkpt>
      <trkpt lat="48.81669" lon="2.21416">
        <ele>145</ele>
        <time>2013-05-01T09:28:49Z</time>
      </trkpt>
      <trkpt lat="48.81667" lon="2.214">
        <ele>140</ele>
        <time>2013-05-01T09:29:03Z</time>
      </trkpt>
      <trkpt lat="48.8167" lon="2.21383">
        <ele>137</ele>
        <time>2013-05-01T09:29:14Z</time>
      </trkpt>
      <trkpt lat="48.81665" lon="2.21367">
        <ele>147</ele>
        <time>2013-05-01T09:29:26Z</time>
      </trkpt>
      <trkpt lat="48.81667" lon="2.2135">
        <ele>138</ele>
        <time>2013-05-01T09:29:36Z</time>
      </trkpt>
      <trkpt lat="48.81667" lon="2.21333">
        <ele>141</ele>
        <time>2013-05-01T09:29:45Z</time>
      </trkpt>
      <trkpt lat="48.8167" lon="2.21317">
        <ele>138</ele>
        <time>2013-05-01T09:29:55Z</time>
      </trkpt>
      <trkpt lat="48.81669" lon="2.21302">
        <ele>137</ele>
        <time>2013-05-01T09:30:00Z</time>
      </trkpt>
      <trkpt lat="48.81666" lon="2.21285">
        <ele>149</ele>
        <time>2013-05-01T09:30:07Z</time>
      </trkpt>
      <trkpt lat="48.81664" lon="2.21272">
        <ele>149</ele>
        <time>2013-05-01T09:30:13Z</time>
      </trkpt>
      <trkpt lat="48.81662" lon="2.21259">
        <ele>149</ele>
        <time>2013-05-01T09:30:19Z</time>
      </trkpt>
      <trkpt lat="48.81662" lon="2.21247">
        <ele>149</ele>
        <time>2013-05-01T09:30:28Z</time>
      </trkpt>
      <trkpt lat="48.81662" lon="2.21229">
        <ele>152</ele>
        <time>2013-05-01T09:30:35Z</time>
      </trkpt>
      <trkpt lat="48.81659" lon="2.21214">
        <ele>154</ele>
        <time>2013-05-01T09:30:47Z</time>
      </trkpt>
      <trkpt lat="48.81665" lon="2.212">
        <ele>154</ele>
        <time>2013-05-01T09:30:57Z</time>
      </trkpt>
      <trkpt lat="48.81665" lon="2.21183">
        <ele>154</ele>
        <time>2013-05-01T09:31:08Z</time>
      </trkpt>
      <trkpt lat="48.81663" lon="2.21164">
        <ele>153</ele>
        <time>2013-05-01T09:31:20Z</time>
      </trkpt>
      <trkpt lat="48.81661" lon="2.21147">
        <ele>155</ele>
        <time>2013-05-01T09:31:30Z</time>
      </trkpt>
      <trkpt lat="48.81665" lon="2.21132">
        <ele>155</ele>
        <time>2013-05-01T09:31:40Z</time>
      </trkpt>
      <trkpt lat="48.81664" lon="2.21115">
        <ele>156</ele>
        <time>2013-05-01T09:31:51Z</time>
      </trkpt>
      <trkpt lat="48.81664" lon="2.21102">
        <ele>155</ele>
        <time>2013-05-01T09:32:01Z</time>
      </trkpt>
      <trkpt lat="48.81665" lon="2.21085">
        <ele>154</ele>
        <time>2013-05-01T09:32:10Z</time>
      </trkpt>
      <trkpt lat="48.8167" lon="2.21066">
        <ele>149</ele>
        <time>2013-05-01T09:32:24Z</time>
      </trkpt>
      <trkpt lat="48.8167" lon="2.21043">
        <ele>147</ele>
        <time>2013-05-01T09:32:36Z</time>
      </trkpt>
      <trkpt lat="48.81674" lon="2.21027">
        <ele>147</ele>
        <time>2013-05-01T09:32:45Z</time>
      </trkpt>
      <trkpt lat="48.81675" lon="2.2101">
        <ele>147</ele>
        <time>2013-05-01T09:32:52Z</time>
      </trkpt>
      <trkpt lat="48.81665" lon="2.21">
        <ele>149</ele>
        <time>2013-05-01T09:33:00Z</time>
      </trkpt>
      <trkpt lat="48.81658" lon="2.20987">
        <ele>150</ele>
        <time>2013-05-01T09:33:21Z</time>
      </trkpt>
      <trkpt lat="48.81651" lon="2.20974">
        <ele>150</ele>
        <time>2013-05-01T09:33:33Z</time>
      </trkpt>
      <trkpt lat="48.81636" lon="2.20967">
        <ele>150</ele>
        <time>2013-05-01T09:33:47Z</time>
      </trkpt>
      <trkpt lat="48.81624" lon="2.20966">
        <ele>151</ele>
        <time>2013-05-01T09:33:53Z</time>
      </trkpt>
      <trkpt lat="48.81612" lon="2.20959">
        <ele>151</ele>
        <time>2013-05-01T09:33:59Z</time>
      </trkpt>
      <trkpt lat="48.81601" lon="2.20953">
        <ele>152</ele>
        <time>2013-05-01T09:34:06Z</time>
      </trkpt>
      <trkpt lat="48.81593" lon="2.20939">
        <ele>152</ele>
        <time>2013-05-01T09:34:15Z</time>
      </trkpt>
      <trkpt lat="48.81587" lon="2.20928">
        <ele>153</ele>
        <time>2013-05-01T09:34:22Z</time>
      </trkpt>
      <trkpt lat="48.81576" lon="2.20921">
        <ele>155</ele>
        <time>2013-05-01T09:34:29Z</time>
      </trkpt>
      <trkpt lat="48.81569" lon="2.20915">
        <ele>156</ele>
        <time>2013-05-01T09:34:35Z</time>
      </trkpt>
      <trkpt lat="48.81562" lon="2.20908">
        <ele>157</ele>
        <time>2013-05-01T09:34:40Z</time>
      </trkpt>
      <trkpt lat="48.81556" lon="2.209">
        <ele>158</ele>
        <time>2013-05-01T09:34:45Z</time>
      </trkpt>
      <trkpt lat="48.81551" lon="2.20893">
        <ele>159</ele>
        <time>2013-05-01T09:34:55Z</time>
      </trkpt>
      <trkpt lat="48.81543" lon="2.20892">
        <ele>159</ele>
        <time>2013-05-01T09:35:02Z</time>
      </trkpt>
      <trkpt lat="48.81538" lon="2.20882">
        <ele>159</ele>
        <time>2013-05-01T09:35:11Z</time>
      </trkpt>
      <trkpt lat="48.81528" lon="2.20875">
        <ele>160</ele>
        <time>2013-05-01T09:35:19Z</time>
      </trkpt>
      <trkpt lat="48.81522" lon="2.20849">
        <ele>161</ele>
        <time>2013-05-01T09:35:34Z</time>
      </trkpt>
      <trkpt lat="48.81517" lon="2.2084">
        <ele>161</ele>
        <time>2013-05-01T09:35:40Z</time>
      </trkpt>
      <trkpt lat="48.81512" lon="2.20831">
        <ele>162</ele>
        <time>2013-05-01T09:35:47Z</time>
      </trkpt>
      <trkpt lat="48.81507" lon="2.20823">
        <ele>162</ele>
        <time>2013-05-01T09:35:56Z</time>
      </trkpt>
      <trkpt lat="48.81501" lon="2.20814">
        <ele>162</ele>
        <time>2013-05-01T09:36:02Z</time>
      </trkpt>
      <trkpt lat="48.81501" lon="2.20803">
        <ele>161</ele>
        <time>2013-05-01T09:36:10Z</time>
      </trkpt>
      <trkpt lat="48.81493" lon="2.20787">
        <ele>163</ele>
        <time>2013-05-01T09:36:21Z</time>
      </trkpt>
      <trkpt lat="48.81488" lon="2.20778">
        <ele>163</ele>
        <time>2013-05-01T09:36:27Z</time>
      </trkpt>
      <trkpt lat="48.81481" lon="2.20766">
        <ele>163</ele>
        <time>2013-05-01T09:36:35Z</time>
      </trkpt>
      <trkpt lat="48.81476" lon="2.20756">
        <ele>163</ele>
        <time>2013-05-01T09:36:42Z</time>
      </trkpt>
      <trkpt lat="48.81468" lon="2.20743">
        <ele>164</ele>
        <time>2013-05-01T09:36:51Z</time>
      </trkpt>
      <trkpt lat="48.81459" lon="2.20739">
        <ele>164</ele>
        <time>2013-05-01T09:36:57Z</time>
      </trkpt>
      <trkpt lat="48.81451" lon="2.20733">
        <ele>164</ele>
        <time>2013-05-01T09:37:04Z</time>
      </trkpt>
      <trkpt lat="48.8144" lon="2.20729">
        <ele>164</ele>
        <time>2013-05-01T09:37:13Z</time>
      </trkpt>
      <trkpt lat="48.81429" lon="2.20725">
        <ele>164</ele>
        <time>2013-05-01T09:37:23Z</time>
      </trkpt>
      <trkpt lat="48.81419" lon="2.20715">
        <ele>164</ele>
        <time>2013-05-01T09:37:35Z</time>
      </trkpt>
      <trkpt lat="48.81413" lon="2.20699">
        <ele>165</ele>
        <time>2013-05-01T09:37:44Z</time>
      </trkpt>
      <trkpt lat="48.81408" lon="2.20692">
        <ele>165</ele>
        <time>2013-05-01T09:37:51Z</time>
      </trkpt>
      <trkpt lat="48.81402" lon="2.20678">
        <ele>165</ele>
        <time>2013-05-01T09:38:01Z</time>
      </trkpt>
      <trkpt lat="48.81395" lon="2.20663">
        <ele>167</ele>
        <time>2013-05-01T09:38:44Z</time>
      </trkpt>
      <trkpt lat="48.81392" lon="2.20649">
        <ele>168</ele>
        <time>2013-05-01T09:38:50Z</time>
      </trkpt>
      <trkpt lat="48.81391" lon="2.20631">
        <ele>168</ele>
        <time>2013-05-01T09:38:56Z</time>
      </trkpt>
      <trkpt lat="48.81389" lon="2.2062">
        <ele>168</ele>
        <time>2013-05-01T09:39:03Z</time>
      </trkpt>
      <trkpt lat="48.81384" lon="2.20609">
        <ele>169</ele>
        <time>2013-05-01T09:39:10Z</time>
      </trkpt>
      <trkpt lat="48.81379" lon="2.206">
        <ele>169</ele>
        <time>2013-05-01T09:39:16Z</time>
      </trkpt>
      <trkpt lat="48.81377" lon="2.20589">
        <ele>169</ele>
        <time>2013-05-01T09:39:23Z</time>
      </trkpt>
      <trkpt lat="48.81376" lon="2.20577">
        <ele>170</ele>
        <time>2013-05-01T09:39:31Z</time>
      </trkpt>
      <trkpt lat="48.81371" lon="2.20568">
        <ele>170</ele>
        <time>2013-05-01T09:39:38Z</time>
      </trkpt>
      <trkpt lat="48.81366" lon="2.20558">
        <ele>170</ele>
        <time>2013-05-01T09:39:44Z</time>
      </trkpt>
      <trkpt lat="48.81364" lon="2.20548">
        <ele>170</ele>
        <time>2013-05-01T09:39:51Z</time>
      </trkpt>
      <trkpt lat="48.81363" lon="2.20537">
        <ele>170</ele>
        <time>2013-05-01T09:39:58Z</time>
      </trkpt>
      <trkpt lat="48.81359" lon="2.20526">
        <ele>171</ele>
        <time>2013-05-01T09:40:05Z</time>
      </trkpt>
      <trkpt lat="48.81354" lon="2.20517">
        <ele>171</ele>
        <time>2013-05-01T09:40:12Z</time>
      </trkpt>
      <trkpt lat="48.81355" lon="2.20506">
        <ele>171</ele>
        <time>2013-05-01T09:40:19Z</time>
      </trkpt>
      <trkpt lat="48.81351" lon="2.20495">
        <ele>170</ele>
        <time>2013-05-01T09:40:28Z</time>
      </trkpt>
      <trkpt lat="48.81347" lon="2.20479">
        <ele>170</ele>
        <time>2013-05-01T09:40:38Z</time>
      </trkpt>
      <trkpt lat="48.81341" lon="2.20463">
        <ele>169</ele>
        <time>2013-05-01T09:40:49Z</time>
      </trkpt>
      <trkpt lat="48.81334" lon="2.20449">
        <ele>169</ele>
        <time>2013-05-01T09:40:57Z</time>
      </trkpt>
      <trkpt lat="48.8133" lon="2.20433">
        <ele>170</ele>
        <time>2013-05-01T09:41:05Z</time>
      </trkpt>
      <trkpt lat="48.81328" lon="2.20415">
        <ele>169</ele>
        <time>2013-05-01T09:41:13Z</time>
      </trkpt>
      <trkpt lat="48.81325" lon="2.20402">
        <ele>169</ele>
        <time>2013-05-01T09:41:18Z</time>
      </trkpt>
      <trkpt lat="48.81318" lon="2.2039">
        <ele>169</ele>
        <time>2013-05-01T09:41:28Z</time>
      </trkpt>
      <trkpt lat="48.81315" lon="2.20372">
        <ele>168</ele>
        <time>2013-05-01T09:41:37Z</time>
      </trkpt>
      <trkpt lat="48.81311" lon="2.20353">
        <ele>168</ele>
        <time>2013-05-01T09:41:46Z</time>
      </trkpt>
      <trkpt lat="48.81308" lon="2.20342">
        <ele>168</ele>
        <time>2013-05-01T09:41:53Z</time>
      </trkpt>
      <trkpt lat="48.81303" lon="2.20332">
        <ele>167</ele>
        <time>2013-05-01T09:42:00Z</time>
      </trkpt>
      <trkpt lat="48.81297" lon="2.20317">
        <ele>167</ele>
        <time>2013-05-01T09:42:07Z</time>
      </trkpt>
      <trkpt lat="48.81294" lon="2.20308">
        <ele>167</ele>
        <time>2013-05-01T09:42:12Z</time>
      </trkpt>
      <trkpt lat="48.81287" lon="2.20294">
        <ele>168</ele>
        <time>2013-05-01T09:42:20Z</time>
      </trkpt>
      <trkpt lat="48.81282" lon="2.20275">
        <ele>168</ele>
        <time>2013-05-01T09:42:28Z</time>
      </trkpt>
      <trkpt lat="48.81276" lon="2.20256">
        <ele>168</ele>
        <time>2013-05-01T09:42:37Z</time>
      </trkpt>
      <trkpt lat="48.81271" lon="2.20241">
        <ele>166</ele>
        <time>2013-05-01T09:42:44Z</time>
      </trkpt>
      <trkpt lat="48.81266" lon="2.20225">
        <ele>165</ele>
        <time>2013-05-01T09:42:51Z</time>
      </trkpt>
      <trkpt lat="48.81263" lon="2.20209">
        <ele>164</ele>
        <time>2013-05-01T09:42:56Z</time>
      </trkpt>
      <trkpt lat="48.81259" lon="2.20198">
        <ele>164</ele>
        <time>2013-05-01T09:43:01Z</time>
      </trkpt>
      <trkpt lat="48.81253" lon="2.20184">
        <ele>164</ele>
        <time>2013-05-01T09:43:09Z</time>
      </trkpt>
      <trkpt lat="48.8125" lon="2.20166">
        <ele>163</ele>
        <time>2013-05-01T09:43:20Z</time>
      </trkpt>
      <trkpt lat="48.81245" lon="2.2015">
        <ele>164</ele>
        <time>2013-05-01T09:43:30Z</time>
      </trkpt>
      <trkpt lat="48.81241" lon="2.2014">
        <ele>164</ele>
        <time>2013-05-01T09:43:35Z</time>
      </trkpt>
      <trkpt lat="48.81236" lon="2.20123">
        <ele>164</ele>
        <time>2013-05-01T09:44:11Z</time>
      </trkpt>
      <trkpt lat="48.8123" lon="2.20114">
        <ele>164</ele>
        <time>2013-05-01T09:44:14Z</time>
      </trkpt>
      <trkpt lat="48.81223" lon="2.2011">
        <ele>164</ele>
        <time>2013-05-01T09:44:27Z</time>
      </trkpt>
      <trkpt lat="48.81215" lon="2.20107">
        <ele>164</ele>
        <time>2013-05-01T09:44:33Z</time>
      </trkpt>
      <trkpt lat="48.8121" lon="2.20099">
        <ele>165</ele>
        <time>2013-05-01T09:44:44Z</time>
      </trkpt>
      <trkpt lat="48.81199" lon="2.20101">
        <ele>166</ele>
        <time>2013-05-01T09:44:54Z</time>
      </trkpt>
      <trkpt lat="48.81187" lon="2.20099">
        <ele>167</ele>
        <time>2013-05-01T09:45:03Z</time>
      </trkpt>
      <trkpt lat="48.81176" lon="2.20097">
        <ele>168</ele>
        <time>2013-05-01T09:45:12Z</time>
      </trkpt>
      <trkpt lat="48.81165" lon="2.20095">
        <ele>170</ele>
        <time>2013-05-01T09:45:19Z</time>
      </trkpt>
      <trkpt lat="48.81154" lon="2.20086">
        <ele>170</ele>
        <time>2013-05-01T09:45:28Z</time>
      </trkpt>
      <trkpt lat="48.81143" lon="2.2008">
        <ele>170</ele>
        <time>2013-05-01T09:45:37Z</time>
      </trkpt>
      <trkpt lat="48.81132" lon="2.20076">
        <ele>170</ele>
        <time>2013-05-01T09:45:48Z</time>
      </trkpt>
      <trkpt lat="48.81121" lon="2.20073">
        <ele>170</ele>
        <time>2013-05-01T09:45:59Z</time>
      </trkpt>
      <trkpt lat="48.81106" lon="2.20063">
        <ele>170</ele>
        <time>2013-05-01T09:46:11Z</time>
      </trkpt>
      <trkpt lat="48.81094" lon="2.20062">
        <ele>170</ele>
        <time>2013-05-01T09:46:19Z</time>
      </trkpt>
      <trkpt lat="48.8108" lon="2.20058">
        <ele>169</ele>
        <time>2013-05-01T09:46:30Z</time>
      </trkpt>
      <trkpt lat="48.81066" lon="2.20055">
        <ele>169</ele>
        <time>2013-05-01T09:46:40Z</time>
      </trkpt>
      <trkpt lat="48.81054" lon="2.2005">
        <ele>168</ele>
        <time>2013-05-01T09:46:48Z</time>
      </trkpt>
      <trkpt lat="48.81043" lon="2.20046">
        <ele>168</ele>
        <time>2013-05-01T09:46:56Z</time>
      </trkpt>
      <trkpt lat="48.81033" lon="2.20037">
        <ele>167</ele>
        <time>2013-05-01T09:47:04Z</time>
      </trkpt>
      <trkpt lat="48.81022" lon="2.20031">
        <ele>167</ele>
        <time>2013-05-01T09:47:10Z</time>
      </trkpt>
      <trkpt lat="48.8101" lon="2.20029">
        <ele>166</ele>
        <time>2013-05-01T09:47:17Z</time>
      </trkpt>
      <trkpt lat="48.80999" lon="2.20027">
        <ele>161</ele>
        <time>2013-05-01T09:47:25Z</time>
      </trkpt>
      <trkpt lat="48.80987" lon="2.20023">
        <ele>161</ele>
        <time>2013-05-01T09:47:36Z</time>
      </trkpt>
      <trkpt lat="48.80978" lon="2.20011">
        <ele>160</ele>
        <time>2013-05-01T09:47:45Z</time>
      </trkpt>
      <trkpt lat="48.80967" lon="2.20002">
        <ele>159</ele>
        <time>2013-05-01T09:47:56Z</time>
      </trkpt>
      <trkpt lat="48.80955" lon="2.19995">
        <ele>154</ele>
        <time>2013-05-01T09:48:10Z</time>
      </trkpt>
      <trkpt lat="48.80946" lon="2.19989">
        <ele>153</ele>
        <time>2013-05-01T09:48:25Z</time>
      </trkpt>
      <trkpt lat="48.80944" lon="2.19971">
        <ele>152</ele>
        <time>2013-05-01T09:48:41Z</time>
      </trkpt>
      <trkpt lat="48.80947" lon="2.19954">
        <ele>152</ele>
        <time>2013-05-01T09:48:51Z</time>
      </trkpt>
      <trkpt lat="48.80943" lon="2.19945">
        <ele>151</ele>
        <time>2013-05-01T09:49:01Z</time>
      </trkpt>
      <trkpt lat="48.80938" lon="2.19928">
        <ele>149</ele>
        <time>2013-05-01T09:49:18Z</time>
      </trkpt>
      <trkpt lat="48.80933" lon="2.19913">
        <ele>145</ele>
        <time>2013-05-01T09:49:35Z</time>
      </trkpt>
      <trkpt lat="48.80935" lon="2.1989">
        <ele>145</ele>
        <time>2013-05-01T09:49:45Z</time>
      </trkpt>
      <trkpt lat="48.80939" lon="2.1987">
        <ele>144</ele>
        <time>2013-05-01T09:49:54Z</time>
      </trkpt>
      <trkpt lat="48.80949" lon="2.19845">
        <ele>143</ele>
        <time>2013-05-01T09:50:07Z</time>
      </trkpt>
      <trkpt lat="48.80957" lon="2.19833">
        <ele>138</ele>
        <time>2013-05-01T09:50:17Z</time>
      </trkpt>
      <trkpt lat="48.80959" lon="2.19815">
        <ele>138</ele>
        <time>2013-05-01T09:50:26Z</time>
      </trkpt>
      <trkpt lat="48.80957" lon="2.19799">
        <ele>137</ele>
        <time>2013-05-01T09:50:30Z</time>
      </trkpt>
      <trkpt lat="48.80953" lon="2.19789">
        <ele>136</ele>
        <time>2013-05-01T09:50:35Z</time>
      </trkpt>
      <trkpt lat="48.80941" lon="2.19781">
        <ele>135</ele>
        <time>2013-05-01T09:50:47Z</time>
      </trkpt>
      <trkpt lat="48.80931" lon="2.19768">
        <ele>133</ele>
        <time>2013-05-01T09:51:00Z</time>
      </trkpt>
      <trkpt lat="48.80925" lon="2.19761">
        <ele>131</ele>
        <time>2013-05-01T09:51:11Z</time>
      </trkpt>
      <trkpt lat="48.80915" lon="2.19742">
        <ele>125</ele>
        <time>2013-05-01T09:51:26Z</time>
      </trkpt>
      <trkpt lat="48.80906" lon="2.1973">
        <ele>123</ele>
        <time>2013-05-01T09:51:41Z</time>
      </trkpt>
      <trkpt lat="48.80898" lon="2.19709">
        <ele>121</ele>
        <time>2013-05-01T09:51:57Z</time>
      </trkpt>
      <trkpt lat="48.8089" lon="2.19695">
        <ele>120</ele>
        <time>2013-05-01T09:52:07Z</time>
      </trkpt>
      <trkpt lat="48.80889" lon="2.19684">
        <ele>120</ele>
        <time>2013-05-01T09:52:13Z</time>
      </trkpt>
      <trkpt lat="48.80887" lon="2.19673">
        <ele>120</ele>
        <time>2013-05-01T09:52:19Z</time>
      </trkpt>
      <trkpt lat="48.80883" lon="2.19661">
        <ele>117</ele>
        <time>2013-05-01T09:52:26Z</time>
      </trkpt>
      <trkpt lat="48.80882" lon="2.19644">
        <ele>116</ele>
        <time>2013-05-01T09:52:38Z</time>
      </trkpt>
      <trkpt lat="48.80878" lon="2.19633">
        <ele>116</ele>
        <time>2013-05-01T09:52:47Z</time>
      </trkpt>
      <trkpt lat="48.80874" lon="2.19613">
        <ele>115</ele>
        <time>2013-05-01T09:52:57Z</time>
      </trkpt>
      <trkpt lat="48.80871" lon="2.19602">
        <ele>115</ele>
        <time>2013-05-01T09:53:24Z</time>
      </trkpt>
      <trkpt lat="48.80869" lon="2.19594">
        <ele>115</ele>
        <time>2013-05-01T09:53:31Z</time>
      </trkpt>
      <trkpt lat="48.80863" lon="2.19601">
        <ele>115</ele>
        <time>2013-05-01T09:54:12Z</time>
      </trkpt>
      <trkpt lat="48.8087" lon="2.19602">
        <ele>115</ele>
        <time>2013-05-01T09:55:20Z</time>
      </trkpt>
    </trkseg>
  </trk>
</gpx>